LVX452 SOCA-TGPY
Flight info
| Callsign | LVX452 |
|---|---|
| Flight time | 4h 42m |
| Altitude | 10000 |
| Route | GEDAX UG443 ZY UG449 PERGA |
| Aircraft | RV10/L-SDGRY/S |
Departure
| Time | 2026-04-21 23:48 |
|---|---|
| Airport | Cayenne – Félix Eboué Airport (SOCA) |
Arrival
| Time | 2026-04-22 04:30 |
|---|---|
| Airport | Maurice Bishop International Airport (TGPY) |
| Time | Latitude | Longitude | Altitude | Speed | Heading |
|---|---|---|---|---|---|
| 2026-04-21 23:31 | 4.82328 | -52.35999 | 81 ft | 0 kts | 339° |
| 2026-04-21 23:43 | 4.82330 | -52.35999 | 81 ft | 2 kts | 338° |
| 2026-04-21 23:44 | 4.82336 | -52.36028 | 81 ft | 9 kts | 245° |
| 2026-04-21 23:44 | 4.82290 | -52.36070 | 81 ft | 12 kts | 177° |
| 2026-04-21 23:44 | 4.82205 | -52.36063 | 81 ft | 11 kts | 161° |
| 2026-04-21 23:44 | 4.82148 | -52.35990 | 81 ft | 15 kts | 125° |
| 2026-04-21 23:45 | 4.82108 | -52.35888 | 84 ft | 18 kts | 65° |
| 2026-04-21 23:45 | 4.82226 | -52.35633 | 84 ft | 22 kts | 64° |
| 2026-04-21 23:45 | 4.82291 | -52.35491 | 85 ft | 23 kts | 65° |
| 2026-04-21 23:46 | 4.82361 | -52.35339 | 85 ft | 25 kts | 64° |
| 2026-04-21 23:46 | 4.82434 | -52.35180 | 82 ft | 26 kts | 65° |
| 2026-04-21 23:46 | 4.82503 | -52.35032 | 81 ft | 20 kts | 67° |
| 2026-04-21 23:46 | 4.82546 | -52.34918 | 81 ft | 7 kts | 52° |
| 2026-04-21 23:47 | 4.82548 | -52.34930 | 81 ft | 0 kts | 244° |
| 2026-04-21 23:47 | 4.82548 | -52.34931 | 81 ft | 2 kts | 244° |
| 2026-04-21 23:47 | 4.82418 | -52.35211 | 91 ft | 75 kts | 243° |
| 2026-04-21 23:47 | 4.82176 | -52.35748 | 261 ft | 90 kts | 244° |
| 2026-04-21 23:48 | 4.81909 | -52.36336 | 483 ft | 96 kts | 244° |
| 2026-04-21 23:48 | 4.81714 | -52.36743 | 617 ft | 100 kts | 242° |
| 2026-04-21 23:48 | 4.81239 | -52.37714 | 799 ft | 133 kts | 244° |
| 2026-04-21 23:48 | 4.80962 | -52.38309 | 880 ft | 143 kts | 244° |
| 2026-04-21 23:49 | 4.80388 | -52.39560 | 1052 ft | 154 kts | 244° |
| 2026-04-21 23:49 | 4.80234 | -52.40272 | 1123 ft | 158 kts | 273° |
| 2026-04-21 23:49 | 4.80743 | -52.41645 | 1288 ft | 159 kts | 291° |
| 2026-04-21 23:49 | 4.80978 | -52.42357 | 1380 ft | 159 kts | 287° |
| 2026-04-21 23:50 | 4.81271 | -52.43436 | 1506 ft | 162 kts | 285° |
| 2026-04-21 23:50 | 4.81550 | -52.44520 | 1632 ft | 164 kts | 285° |
| 2026-04-21 23:50 | 4.81835 | -52.45625 | 1746 ft | 164 kts | 285° |
| 2026-04-21 23:50 | 4.82122 | -52.46734 | 1874 ft | 165 kts | 285° |
| 2026-04-21 23:51 | 4.82411 | -52.47851 | 1994 ft | 166 kts | 285° |
| 2026-04-21 23:51 | 4.82702 | -52.48973 | 2120 ft | 166 kts | 285° |
| 2026-04-21 23:51 | 4.82994 | -52.50103 | 2240 ft | 168 kts | 285° |
| 2026-04-21 23:51 | 4.83289 | -52.51242 | 2359 ft | 169 kts | 285° |
| 2026-04-21 23:52 | 4.83583 | -52.52377 | 2483 ft | 168 kts | 285° |
| 2026-04-21 23:52 | 4.83876 | -52.53508 | 2601 ft | 168 kts | 285° |
| 2026-04-21 23:52 | 4.84169 | -52.54642 | 2719 ft | 168 kts | 285° |
| 2026-04-21 23:52 | 4.84462 | -52.55775 | 2844 ft | 168 kts | 285° |
| 2026-04-21 23:53 | 4.84755 | -52.56905 | 2965 ft | 167 kts | 285° |
| 2026-04-21 23:53 | 4.85047 | -52.58033 | 3085 ft | 167 kts | 285° |
| 2026-04-21 23:53 | 4.85340 | -52.59168 | 3212 ft | 169 kts | 285° |
| 2026-04-21 23:53 | 4.85636 | -52.60312 | 3322 ft | 170 kts | 285° |
| 2026-04-21 23:54 | 4.85931 | -52.61449 | 3447 ft | 169 kts | 285° |
| 2026-04-21 23:54 | 4.86225 | -52.62588 | 3564 ft | 168 kts | 285° |
| 2026-04-21 23:54 | 4.86517 | -52.63718 | 3682 ft | 167 kts | 285° |
| 2026-04-21 23:54 | 4.86808 | -52.64842 | 3802 ft | 166 kts | 285° |
| 2026-04-21 23:55 | 4.87098 | -52.65964 | 3925 ft | 166 kts | 285° |
| 2026-04-21 23:55 | 4.87388 | -52.67085 | 4043 ft | 166 kts | 285° |
| 2026-04-21 23:55 | 4.87676 | -52.68198 | 4165 ft | 164 kts | 285° |
| 2026-04-21 23:55 | 4.87963 | -52.69308 | 4285 ft | 164 kts | 285° |
| 2026-04-21 23:56 | 4.88250 | -52.70419 | 4411 ft | 164 kts | 285° |
| 2026-04-21 23:56 | 4.88532 | -52.71512 | 4531 ft | 164 kts | 285° |
| 2026-04-21 23:56 | 4.88818 | -52.72615 | 4653 ft | 163 kts | 284° |
| 2026-04-21 23:56 | 4.89102 | -52.73715 | 4773 ft | 163 kts | 285° |
| 2026-04-21 23:57 | 4.89385 | -52.74812 | 4891 ft | 162 kts | 284° |
| 2026-04-21 23:57 | 4.89668 | -52.75905 | 5008 ft | 162 kts | 284° |
| 2026-04-21 23:57 | 4.89951 | -52.77001 | 5127 ft | 162 kts | 285° |
| 2026-04-21 23:57 | 4.90232 | -52.78087 | 5244 ft | 161 kts | 284° |
| 2026-04-21 23:58 | 4.90513 | -52.79174 | 5372 ft | 161 kts | 284° |
| 2026-04-21 23:58 | 4.90794 | -52.80262 | 5491 ft | 161 kts | 284° |
| 2026-04-21 23:58 | 4.91075 | -52.81350 | 5613 ft | 161 kts | 284° |
| 2026-04-21 23:58 | 4.91355 | -52.82433 | 5734 ft | 160 kts | 284° |
| 2026-04-21 23:59 | 4.91633 | -52.83511 | 5856 ft | 160 kts | 284° |
| 2026-04-21 23:59 | 4.91907 | -52.84573 | 5977 ft | 160 kts | 284° |
| 2026-04-21 23:59 | 4.92186 | -52.85651 | 6103 ft | 159 kts | 284° |
| 2026-04-21 23:59 | 4.92463 | -52.86724 | 6227 ft | 159 kts | 285° |
| 2026-04-22 00:00 | 4.92740 | -52.87798 | 6348 ft | 158 kts | 284° |
| 2026-04-22 00:00 | 4.93016 | -52.88864 | 6460 ft | 158 kts | 284° |
| 2026-04-22 00:00 | 4.93291 | -52.89929 | 6570 ft | 157 kts | 285° |
| 2026-04-22 00:00 | 4.93565 | -52.90990 | 6690 ft | 156 kts | 284° |
| 2026-04-22 00:01 | 4.93838 | -52.92047 | 6805 ft | 156 kts | 284° |
| 2026-04-22 00:01 | 4.94110 | -52.93101 | 6917 ft | 156 kts | 284° |
| 2026-04-22 00:01 | 4.94377 | -52.94136 | 7037 ft | 155 kts | 284° |
| 2026-04-22 00:01 | 4.94647 | -52.95180 | 7152 ft | 153 kts | 284° |
| 2026-04-22 00:02 | 4.94910 | -52.96199 | 7261 ft | 149 kts | 284° |
| 2026-04-22 00:02 | 4.95167 | -52.97196 | 7376 ft | 147 kts | 284° |
| 2026-04-22 00:02 | 4.95428 | -52.98209 | 7489 ft | 154 kts | 284° |
| 2026-04-22 00:02 | 4.95701 | -52.99273 | 7621 ft | 159 kts | 284° |
| 2026-04-22 00:03 | 4.95981 | -53.00359 | 7742 ft | 162 kts | 284° |
| 2026-04-22 00:03 | 4.96266 | -53.01461 | 7870 ft | 164 kts | 284° |
| 2026-04-22 00:03 | 4.96519 | -53.02584 | 7993 ft | 165 kts | 282° |
| 2026-04-22 00:03 | 4.96781 | -53.03709 | 8115 ft | 166 kts | 283° |
| 2026-04-22 00:04 | 4.97044 | -53.04821 | 8235 ft | 166 kts | 283° |
| 2026-04-22 00:04 | 4.97304 | -53.05950 | 8358 ft | 166 kts | 283° |
| 2026-04-22 00:04 | 4.97561 | -53.07077 | 8479 ft | 166 kts | 283° |
| 2026-04-22 00:04 | 4.97817 | -53.08200 | 8600 ft | 165 kts | 283° |
| 2026-04-22 00:05 | 4.98073 | -53.09323 | 8725 ft | 165 kts | 283° |
| 2026-04-22 00:05 | 4.98328 | -53.10442 | 8846 ft | 165 kts | 283° |
| 2026-04-22 00:05 | 4.98583 | -53.11561 | 8972 ft | 164 kts | 283° |
| 2026-04-22 00:05 | 4.98837 | -53.12677 | 9100 ft | 164 kts | 283° |
| 2026-04-22 00:06 | 4.99091 | -53.13792 | 9221 ft | 164 kts | 283° |
| 2026-04-22 00:06 | 4.99344 | -53.14902 | 9344 ft | 163 kts | 283° |
| 2026-04-22 00:06 | 4.99597 | -53.16008 | 9465 ft | 163 kts | 282° |
| 2026-04-22 00:06 | 4.99845 | -53.17099 | 9590 ft | 162 kts | 283° |
| 2026-04-22 00:07 | 5.00099 | -53.18212 | 9717 ft | 162 kts | 283° |
| 2026-04-22 00:07 | 5.00348 | -53.19308 | 9845 ft | 161 kts | 283° |
| 2026-04-22 00:07 | 5.00595 | -53.20388 | 9938 ft | 162 kts | 283° |
| 2026-04-22 00:07 | 5.00850 | -53.21511 | 9943 ft | 168 kts | 283° |
| 2026-04-22 00:08 | 5.01114 | -53.22669 | 9945 ft | 172 kts | 283° |
| 2026-04-22 00:08 | 5.01383 | -53.23850 | 9951 ft | 173 kts | 283° |
| 2026-04-22 00:08 | 5.01649 | -53.25019 | 9955 ft | 171 kts | 283° |
| 2026-04-22 00:08 | 5.01912 | -53.26171 | 9956 ft | 169 kts | 283° |
| 2026-04-22 00:09 | 5.02173 | -53.27317 | 9952 ft | 168 kts | 283° |
| 2026-04-22 00:09 | 5.02432 | -53.28456 | 9951 ft | 167 kts | 283° |
| 2026-04-22 00:09 | 5.02690 | -53.29588 | 9950 ft | 166 kts | 283° |
| 2026-04-22 00:09 | 5.02947 | -53.30718 | 9951 ft | 166 kts | 283° |
| 2026-04-22 00:10 | 5.03200 | -53.31833 | 9949 ft | 166 kts | 283° |
| 2026-04-22 00:10 | 5.03457 | -53.32960 | 9947 ft | 165 kts | 283° |
| 2026-04-22 00:10 | 5.03712 | -53.34084 | 9946 ft | 165 kts | 283° |
| 2026-04-22 00:10 | 5.03968 | -53.35207 | 9946 ft | 165 kts | 283° |
| 2026-04-22 00:11 | 5.04224 | -53.36332 | 9947 ft | 165 kts | 282° |
| 2026-04-22 00:11 | 5.04480 | -53.37456 | 9949 ft | 165 kts | 283° |
| 2026-04-22 00:11 | 5.04735 | -53.38579 | 9947 ft | 165 kts | 283° |
| 2026-04-22 00:11 | 5.04991 | -53.39705 | 9946 ft | 165 kts | 283° |
| 2026-04-22 00:12 | 5.05247 | -53.40829 | 9947 ft | 165 kts | 283° |
| 2026-04-22 00:12 | 5.05502 | -53.41952 | 9945 ft | 165 kts | 283° |
| 2026-04-22 00:12 | 5.05755 | -53.43063 | 9948 ft | 165 kts | 283° |
| 2026-04-22 00:12 | 5.06013 | -53.44200 | 9947 ft | 165 kts | 283° |
| 2026-04-22 00:13 | 5.06266 | -53.45310 | 9946 ft | 166 kts | 283° |
| 2026-04-22 00:13 | 5.06522 | -53.46437 | 9949 ft | 166 kts | 283° |
| 2026-04-22 00:13 | 5.06778 | -53.47564 | 9953 ft | 165 kts | 283° |
| 2026-04-22 00:13 | 5.07034 | -53.48691 | 9948 ft | 166 kts | 283° |
| 2026-04-22 00:14 | 5.07291 | -53.49820 | 9950 ft | 166 kts | 283° |
| 2026-04-22 00:14 | 5.07546 | -53.50946 | 9953 ft | 165 kts | 282° |
| 2026-04-22 00:14 | 5.07802 | -53.52071 | 9954 ft | 165 kts | 282° |
| 2026-04-22 00:14 | 5.08057 | -53.53195 | 9951 ft | 165 kts | 283° |
| 2026-04-22 00:15 | 5.08310 | -53.54307 | 9951 ft | 165 kts | 283° |
| 2026-04-22 00:15 | 5.08566 | -53.55433 | 9947 ft | 165 kts | 282° |
| 2026-04-22 00:15 | 5.08822 | -53.56559 | 9949 ft | 165 kts | 282° |
| 2026-04-22 00:15 | 5.09077 | -53.57684 | 9950 ft | 165 kts | 282° |
| 2026-04-22 00:16 | 5.09332 | -53.58806 | 9949 ft | 165 kts | 282° |
| 2026-04-22 00:16 | 5.09587 | -53.59929 | 9950 ft | 165 kts | 282° |
| 2026-04-22 00:16 | 5.09842 | -53.61052 | 9952 ft | 165 kts | 282° |
| 2026-04-22 00:16 | 5.10097 | -53.62176 | 9954 ft | 165 kts | 282° |
| 2026-04-22 00:17 | 5.10352 | -53.63298 | 9952 ft | 165 kts | 283° |
| 2026-04-22 00:17 | 5.10607 | -53.64421 | 9951 ft | 165 kts | 282° |
| 2026-04-22 00:17 | 5.10862 | -53.65545 | 9950 ft | 165 kts | 282° |
| 2026-04-22 00:17 | 5.11117 | -53.66669 | 9952 ft | 165 kts | 282° |
| 2026-04-22 00:18 | 5.11372 | -53.67792 | 9950 ft | 165 kts | 282° |
| 2026-04-22 00:18 | 5.11627 | -53.68916 | 9950 ft | 165 kts | 282° |
| 2026-04-22 00:18 | 5.11882 | -53.70040 | 9959 ft | 165 kts | 282° |
| 2026-04-22 00:18 | 5.12137 | -53.71162 | 9957 ft | 165 kts | 282° |
| 2026-04-22 00:19 | 5.12392 | -53.72285 | 9956 ft | 165 kts | 282° |
| 2026-04-22 00:19 | 5.12646 | -53.73408 | 9954 ft | 165 kts | 282° |
| 2026-04-22 00:19 | 5.12901 | -53.74529 | 9950 ft | 165 kts | 282° |
| 2026-04-22 00:19 | 5.13152 | -53.75639 | 9952 ft | 165 kts | 282° |
| 2026-04-22 00:20 | 5.13407 | -53.76762 | 9955 ft | 165 kts | 282° |
| 2026-04-22 00:20 | 5.13661 | -53.77883 | 9954 ft | 165 kts | 282° |
| 2026-04-22 00:20 | 5.13916 | -53.79005 | 9954 ft | 165 kts | 282° |
| 2026-04-22 00:20 | 5.14171 | -53.80130 | 9954 ft | 165 kts | 282° |
| 2026-04-22 00:21 | 5.14426 | -53.81254 | 9954 ft | 165 kts | 282° |
| 2026-04-22 00:21 | 5.14680 | -53.82374 | 9955 ft | 165 kts | 282° |
| 2026-04-22 00:21 | 5.14933 | -53.83495 | 9955 ft | 165 kts | 282° |
| 2026-04-22 00:21 | 5.15188 | -53.84618 | 9954 ft | 165 kts | 282° |
| 2026-04-22 00:22 | 5.15442 | -53.85739 | 9953 ft | 165 kts | 282° |
| 2026-04-22 00:22 | 5.15696 | -53.86860 | 9957 ft | 165 kts | 282° |
| 2026-04-22 00:22 | 5.15950 | -53.87979 | 9953 ft | 165 kts | 282° |
| 2026-04-22 00:22 | 5.16204 | -53.89099 | 9958 ft | 165 kts | 282° |
| 2026-04-22 00:23 | 5.16458 | -53.90221 | 9953 ft | 165 kts | 282° |
| 2026-04-22 00:23 | 5.16712 | -53.91341 | 9954 ft | 165 kts | 282° |
| 2026-04-22 00:23 | 5.16963 | -53.92449 | 9954 ft | 164 kts | 282° |
| 2026-04-22 00:23 | 5.17216 | -53.93568 | 9952 ft | 164 kts | 282° |
| 2026-04-22 00:24 | 5.17470 | -53.94688 | 9953 ft | 164 kts | 282° |
| 2026-04-22 00:24 | 5.17724 | -53.95811 | 9954 ft | 164 kts | 282° |
| 2026-04-22 00:24 | 5.17977 | -53.96929 | 9953 ft | 164 kts | 282° |
| 2026-04-22 00:24 | 5.18230 | -53.98043 | 9954 ft | 164 kts | 282° |
| 2026-04-22 00:25 | 5.18482 | -53.99160 | 9954 ft | 164 kts | 282° |
| 2026-04-22 00:25 | 5.18735 | -54.00275 | 9957 ft | 164 kts | 282° |
| 2026-04-22 00:25 | 5.18987 | -54.01389 | 9958 ft | 164 kts | 282° |
| 2026-04-22 00:25 | 5.19240 | -54.02506 | 9957 ft | 164 kts | 282° |
| 2026-04-22 00:26 | 5.19492 | -54.03621 | 9958 ft | 164 kts | 282° |
| 2026-04-22 00:26 | 5.19744 | -54.04736 | 9960 ft | 164 kts | 282° |
| 2026-04-22 00:26 | 5.19997 | -54.05850 | 9961 ft | 164 kts | 282° |
| 2026-04-22 00:26 | 5.20249 | -54.06966 | 9958 ft | 164 kts | 282° |
| 2026-04-22 00:27 | 5.20498 | -54.08068 | 9956 ft | 164 kts | 282° |
| 2026-04-22 00:27 | 5.20751 | -54.09183 | 9955 ft | 164 kts | 282° |
| 2026-04-22 00:27 | 5.21003 | -54.10298 | 9956 ft | 164 kts | 282° |
| 2026-04-22 00:27 | 5.21255 | -54.11413 | 9955 ft | 164 kts | 282° |
| 2026-04-22 00:28 | 5.21507 | -54.12527 | 9956 ft | 164 kts | 282° |
| 2026-04-22 00:28 | 5.21759 | -54.13640 | 9960 ft | 164 kts | 282° |
| 2026-04-22 00:28 | 5.22010 | -54.14752 | 9957 ft | 164 kts | 282° |
| 2026-04-22 00:28 | 5.22262 | -54.15865 | 9957 ft | 164 kts | 282° |
| 2026-04-22 00:29 | 5.22514 | -54.16978 | 9958 ft | 164 kts | 282° |
| 2026-04-22 00:29 | 5.22766 | -54.18091 | 9957 ft | 164 kts | 282° |
| 2026-04-22 00:29 | 5.23017 | -54.19204 | 9959 ft | 164 kts | 282° |
| 2026-04-22 00:29 | 5.23270 | -54.20321 | 9959 ft | 164 kts | 282° |
| 2026-04-22 00:30 | 5.23522 | -54.21435 | 9960 ft | 164 kts | 282° |
| 2026-04-22 00:30 | 5.23774 | -54.22552 | 9963 ft | 164 kts | 282° |
| 2026-04-22 00:30 | 5.24026 | -54.23666 | 9964 ft | 164 kts | 282° |
| 2026-04-22 00:30 | 5.24278 | -54.24782 | 9962 ft | 164 kts | 282° |
| 2026-04-22 00:31 | 5.24530 | -54.25897 | 9959 ft | 164 kts | 282° |
| 2026-04-22 00:31 | 5.24782 | -54.27012 | 9959 ft | 164 kts | 282° |
| 2026-04-22 00:31 | 5.25034 | -54.28127 | 9959 ft | 164 kts | 282° |
| 2026-04-22 00:31 | 5.25286 | -54.29244 | 9962 ft | 164 kts | 282° |
| 2026-04-22 00:32 | 5.25535 | -54.30349 | 9962 ft | 165 kts | 282° |
| 2026-04-22 00:32 | 5.25786 | -54.31472 | 9960 ft | 165 kts | 282° |
| 2026-04-22 00:32 | 5.26035 | -54.32595 | 9961 ft | 165 kts | 282° |
| 2026-04-22 00:32 | 5.26285 | -54.33722 | 9961 ft | 165 kts | 282° |
| 2026-04-22 00:33 | 5.26534 | -54.34843 | 9961 ft | 165 kts | 282° |
| 2026-04-22 00:33 | 5.26783 | -54.35963 | 9962 ft | 164 kts | 282° |
| 2026-04-22 00:33 | 5.27032 | -54.37082 | 9962 ft | 164 kts | 282° |
| 2026-04-22 00:33 | 5.27280 | -54.38201 | 9962 ft | 164 kts | 282° |
| 2026-04-22 00:34 | 5.27529 | -54.39321 | 9961 ft | 164 kts | 282° |
| 2026-04-22 00:34 | 5.27775 | -54.40425 | 9963 ft | 164 kts | 282° |
| 2026-04-22 00:34 | 5.28022 | -54.41541 | 9962 ft | 164 kts | 282° |
| 2026-04-22 00:34 | 5.28271 | -54.42660 | 9963 ft | 164 kts | 282° |
| 2026-04-22 00:35 | 5.28520 | -54.43782 | 9961 ft | 165 kts | 282° |
| 2026-04-22 00:35 | 5.28770 | -54.44905 | 9964 ft | 165 kts | 282° |
| 2026-04-22 00:35 | 5.28935 | -54.45648 | 9962 ft | 165 kts | 282° |
| 2026-04-22 00:35 | 5.29268 | -54.47148 | 9964 ft | 165 kts | 282° |
| 2026-04-22 00:36 | 5.29432 | -54.47889 | 9962 ft | 165 kts | 282° |
| 2026-04-22 00:36 | 5.29682 | -54.49014 | 9964 ft | 165 kts | 282° |
| 2026-04-22 00:36 | 5.29931 | -54.50137 | 9962 ft | 165 kts | 282° |
| 2026-04-22 00:36 | 5.30181 | -54.51261 | 9962 ft | 165 kts | 282° |
| 2026-04-22 00:37 | 5.30430 | -54.52386 | 9963 ft | 165 kts | 282° |
| 2026-04-22 00:37 | 5.30680 | -54.53508 | 9965 ft | 165 kts | 282° |
| 2026-04-22 00:37 | 5.30929 | -54.54633 | 9964 ft | 165 kts | 281° |
| 2026-04-22 00:37 | 5.31178 | -54.55755 | 9963 ft | 165 kts | 281° |
| 2026-04-22 00:38 | 5.31425 | -54.56867 | 9961 ft | 165 kts | 281° |
| 2026-04-22 00:38 | 5.31675 | -54.57992 | 9963 ft | 165 kts | 281° |
| 2026-04-22 00:38 | 5.31924 | -54.59115 | 9965 ft | 165 kts | 281° |
| 2026-04-22 00:38 | 5.32173 | -54.60241 | 9962 ft | 165 kts | 281° |
| 2026-04-22 00:39 | 5.32423 | -54.61364 | 9966 ft | 165 kts | 282° |
| 2026-04-22 00:39 | 5.32671 | -54.62486 | 9962 ft | 165 kts | 282° |
| 2026-04-22 00:39 | 5.32920 | -54.63607 | 9965 ft | 165 kts | 281° |
| 2026-04-22 00:39 | 5.33169 | -54.64729 | 9961 ft | 165 kts | 281° |
| 2026-04-22 00:40 | 5.33418 | -54.65852 | 9961 ft | 165 kts | 281° |
| 2026-04-22 00:40 | 5.33667 | -54.66973 | 9964 ft | 164 kts | 281° |
| 2026-04-22 00:40 | 5.33915 | -54.68094 | 9962 ft | 164 kts | 282° |
| 2026-04-22 00:40 | 5.34163 | -54.69214 | 9963 ft | 164 kts | 282° |
| 2026-04-22 00:41 | 5.34412 | -54.70334 | 9965 ft | 165 kts | 282° |
| 2026-04-22 00:41 | 5.34660 | -54.71456 | 9965 ft | 165 kts | 282° |
| 2026-04-22 00:41 | 5.34906 | -54.72564 | 9969 ft | 165 kts | 282° |
| 2026-04-22 00:41 | 5.35155 | -54.73689 | 9969 ft | 165 kts | 282° |
| 2026-04-22 00:42 | 5.35404 | -54.74812 | 9967 ft | 165 kts | 282° |
| 2026-04-22 00:42 | 5.35653 | -54.75936 | 9968 ft | 165 kts | 281° |
| 2026-04-22 00:42 | 5.35902 | -54.77058 | 9966 ft | 165 kts | 281° |
| 2026-04-22 00:42 | 5.36150 | -54.78179 | 9967 ft | 165 kts | 281° |
| 2026-04-22 00:43 | 5.36398 | -54.79300 | 9965 ft | 165 kts | 281° |
| 2026-04-22 00:43 | 5.36646 | -54.80420 | 9970 ft | 164 kts | 281° |
| 2026-04-22 00:43 | 5.36895 | -54.81543 | 9971 ft | 164 kts | 281° |
| 2026-04-22 00:43 | 5.37143 | -54.82661 | 9970 ft | 164 kts | 281° |
| 2026-04-22 00:44 | 5.37391 | -54.83784 | 9970 ft | 165 kts | 281° |
| 2026-04-22 00:44 | 5.37639 | -54.84904 | 9972 ft | 165 kts | 281° |
| 2026-04-22 00:44 | 5.37888 | -54.86026 | 9969 ft | 165 kts | 281° |
| 2026-04-22 00:44 | 5.38136 | -54.87150 | 9969 ft | 165 kts | 281° |
| 2026-04-22 00:45 | 5.38385 | -54.88274 | 9970 ft | 165 kts | 281° |
| 2026-04-22 00:45 | 5.38634 | -54.89400 | 9968 ft | 165 kts | 281° |
| 2026-04-22 00:45 | 5.38883 | -54.90524 | 9969 ft | 165 kts | 281° |
| 2026-04-22 00:45 | 5.39132 | -54.91650 | 9968 ft | 165 kts | 281° |
| 2026-04-22 00:46 | 5.39378 | -54.92758 | 9967 ft | 165 kts | 281° |
| 2026-04-22 00:46 | 5.39626 | -54.93882 | 9968 ft | 165 kts | 281° |
| 2026-04-22 00:46 | 5.39876 | -54.95011 | 9970 ft | 165 kts | 281° |
| 2026-04-22 00:46 | 5.40125 | -54.96138 | 9971 ft | 165 kts | 281° |
| 2026-04-22 00:47 | 5.40374 | -54.97262 | 9970 ft | 165 kts | 281° |
| 2026-04-22 00:47 | 5.40623 | -54.98387 | 9971 ft | 165 kts | 281° |
| 2026-04-22 00:47 | 5.40871 | -54.99509 | 9969 ft | 165 kts | 281° |
| 2026-04-22 00:47 | 5.41119 | -55.00632 | 9971 ft | 165 kts | 281° |
| 2026-04-22 00:48 | 5.41367 | -55.01755 | 9972 ft | 165 kts | 281° |
| 2026-04-22 00:48 | 5.41615 | -55.02877 | 9968 ft | 164 kts | 281° |
| 2026-04-22 00:48 | 5.41863 | -55.03998 | 9970 ft | 164 kts | 281° |
| 2026-04-22 00:48 | 5.42108 | -55.05104 | 9969 ft | 164 kts | 281° |
| 2026-04-22 00:49 | 5.42355 | -55.06225 | 9971 ft | 164 kts | 281° |
| 2026-04-22 00:49 | 5.42603 | -55.07346 | 9970 ft | 165 kts | 281° |
| 2026-04-22 00:49 | 5.42851 | -55.08468 | 9970 ft | 164 kts | 281° |
| 2026-04-22 00:49 | 5.43099 | -55.09590 | 9970 ft | 165 kts | 281° |
| 2026-04-22 00:50 | 5.43347 | -55.10713 | 9971 ft | 165 kts | 281° |
| 2026-04-22 00:50 | 5.43595 | -55.11836 | 9970 ft | 165 kts | 281° |
| 2026-04-22 00:50 | 5.43844 | -55.12961 | 9964 ft | 165 kts | 281° |
| 2026-04-22 00:50 | 5.44089 | -55.14072 | 9968 ft | 166 kts | 281° |
| 2026-04-22 00:51 | 5.44340 | -55.15205 | 9970 ft | 165 kts | 281° |
| 2026-04-22 00:51 | 5.44587 | -55.16321 | 9973 ft | 163 kts | 281° |
| 2026-04-22 00:51 | 5.44831 | -55.17425 | 9976 ft | 162 kts | 281° |
| 2026-04-22 00:51 | 5.45161 | -55.18499 | 9972 ft | 161 kts | 298° |
| 2026-04-22 00:52 | 5.45843 | -55.19386 | 9974 ft | 161 kts | 309° |
| 2026-04-22 00:52 | 5.46562 | -55.20249 | 9970 ft | 161 kts | 309° |
| 2026-04-22 00:52 | 5.47274 | -55.21114 | 9970 ft | 160 kts | 309° |
| 2026-04-22 00:52 | 5.47985 | -55.21979 | 9972 ft | 160 kts | 309° |
| 2026-04-22 00:53 | 5.48694 | -55.22840 | 9972 ft | 160 kts | 309° |
| 2026-04-22 00:53 | 5.49395 | -55.23691 | 9972 ft | 160 kts | 309° |
| 2026-04-22 00:53 | 5.50102 | -55.24550 | 9974 ft | 160 kts | 309° |
| 2026-04-22 00:53 | 5.50811 | -55.25411 | 9973 ft | 160 kts | 309° |
| 2026-04-22 00:54 | 5.51517 | -55.26269 | 9968 ft | 160 kts | 309° |
| 2026-04-22 00:54 | 5.52225 | -55.27129 | 9967 ft | 160 kts | 309° |
| 2026-04-22 00:54 | 5.52934 | -55.27990 | 9970 ft | 160 kts | 309° |
| 2026-04-22 00:54 | 5.53641 | -55.28849 | 9973 ft | 160 kts | 309° |
| 2026-04-22 00:55 | 5.54348 | -55.29708 | 9974 ft | 160 kts | 309° |
| 2026-04-22 00:55 | 5.55056 | -55.30568 | 9969 ft | 159 kts | 309° |
| 2026-04-22 00:55 | 5.56469 | -55.32284 | 9972 ft | 159 kts | 308° |
| 2026-04-22 00:56 | 5.57164 | -55.33129 | 9973 ft | 159 kts | 309° |
| 2026-04-22 00:56 | 5.57870 | -55.33987 | 9974 ft | 159 kts | 309° |
| 2026-04-22 00:56 | 5.58577 | -55.34847 | 9974 ft | 159 kts | 309° |
| 2026-04-22 00:56 | 5.59283 | -55.35704 | 9975 ft | 159 kts | 309° |
| 2026-04-22 00:57 | 5.59989 | -55.36562 | 9975 ft | 159 kts | 308° |
| 2026-04-22 00:57 | 5.60695 | -55.37420 | 9973 ft | 160 kts | 308° |
| 2026-04-22 00:57 | 5.61405 | -55.38283 | 9972 ft | 160 kts | 309° |
| 2026-04-22 00:57 | 5.62112 | -55.39143 | 9974 ft | 160 kts | 308° |
| 2026-04-22 00:58 | 5.62822 | -55.40006 | 9975 ft | 160 kts | 308° |
| 2026-04-22 00:58 | 5.63531 | -55.40867 | 9981 ft | 160 kts | 308° |
| 2026-04-22 00:58 | 5.64240 | -55.41729 | 9978 ft | 160 kts | 308° |
| 2026-04-22 00:58 | 5.64947 | -55.42589 | 9973 ft | 160 kts | 309° |
| 2026-04-22 00:59 | 5.65644 | -55.43436 | 9981 ft | 159 kts | 308° |
| 2026-04-22 00:59 | 5.66351 | -55.44296 | 9977 ft | 159 kts | 308° |
| 2026-04-22 00:59 | 5.67057 | -55.45154 | 9972 ft | 159 kts | 308° |
| 2026-04-22 00:59 | 5.67764 | -55.46013 | 9979 ft | 159 kts | 308° |
| 2026-04-22 01:00 | 5.68471 | -55.46872 | 9972 ft | 159 kts | 308° |
| 2026-04-22 01:00 | 5.69177 | -55.47731 | 9975 ft | 159 kts | 308° |
| 2026-04-22 01:00 | 5.69884 | -55.48591 | 9977 ft | 159 kts | 308° |
| 2026-04-22 01:00 | 5.70591 | -55.49450 | 9979 ft | 160 kts | 308° |
| 2026-04-22 01:01 | 5.71299 | -55.50311 | 9979 ft | 160 kts | 308° |
| 2026-04-22 01:01 | 5.71998 | -55.51162 | 9979 ft | 160 kts | 308° |
| 2026-04-22 01:01 | 5.72709 | -55.52026 | 9977 ft | 160 kts | 308° |
| 2026-04-22 01:01 | 5.73420 | -55.52891 | 9976 ft | 160 kts | 308° |
| 2026-04-22 01:02 | 5.74131 | -55.53756 | 9976 ft | 160 kts | 308° |
| 2026-04-22 01:02 | 5.74841 | -55.54619 | 9972 ft | 160 kts | 308° |
| 2026-04-22 01:02 | 5.75552 | -55.55484 | 9980 ft | 160 kts | 308° |
| 2026-04-22 01:02 | 5.76262 | -55.56348 | 9979 ft | 161 kts | 308° |
| 2026-04-22 01:03 | 5.76964 | -55.57202 | 9982 ft | 161 kts | 308° |
| 2026-04-22 01:03 | 5.77676 | -55.58069 | 9978 ft | 161 kts | 308° |
| 2026-04-22 01:03 | 5.78388 | -55.58935 | 9983 ft | 161 kts | 308° |
| 2026-04-22 01:03 | 5.79101 | -55.59801 | 9982 ft | 161 kts | 308° |
| 2026-04-22 01:04 | 5.79815 | -55.60670 | 9982 ft | 161 kts | 308° |
| 2026-04-22 01:04 | 5.80530 | -55.61540 | 9984 ft | 162 kts | 308° |
| 2026-04-22 01:04 | 5.81246 | -55.62411 | 9984 ft | 162 kts | 308° |
| 2026-04-22 01:04 | 5.81963 | -55.63284 | 9979 ft | 162 kts | 308° |
| 2026-04-22 01:05 | 5.82682 | -55.64159 | 9987 ft | 162 kts | 308° |
| 2026-04-22 01:05 | 5.83401 | -55.65034 | 9988 ft | 163 kts | 308° |
| 2026-04-22 01:05 | 5.84123 | -55.65912 | 9984 ft | 163 kts | 308° |
| 2026-04-22 01:05 | 5.84835 | -55.66780 | 9980 ft | 163 kts | 308° |
| 2026-04-22 01:06 | 5.85565 | -55.67667 | 9982 ft | 162 kts | 308° |
| 2026-04-22 01:06 | 5.86273 | -55.68529 | 9984 ft | 162 kts | 308° |
| 2026-04-22 01:06 | 5.86991 | -55.69404 | 9981 ft | 162 kts | 308° |
| 2026-04-22 01:06 | 5.87710 | -55.70279 | 9986 ft | 162 kts | 308° |
| 2026-04-22 01:07 | 5.88429 | -55.71153 | 9989 ft | 162 kts | 308° |
| 2026-04-22 01:07 | 5.89149 | -55.72030 | 9985 ft | 163 kts | 308° |
| 2026-04-22 01:07 | 5.89873 | -55.72912 | 9982 ft | 163 kts | 308° |
| 2026-04-22 01:07 | 5.90598 | -55.73795 | 9981 ft | 164 kts | 308° |
| 2026-04-22 01:08 | 5.91323 | -55.74677 | 9981 ft | 164 kts | 308° |
| 2026-04-22 01:08 | 5.92049 | -55.75561 | 9980 ft | 164 kts | 308° |
| 2026-04-22 01:08 | 5.92772 | -55.76442 | 9984 ft | 163 kts | 308° |
| 2026-04-22 01:08 | 5.93493 | -55.77320 | 9982 ft | 163 kts | 308° |
| 2026-04-22 01:09 | 5.94214 | -55.78198 | 9982 ft | 163 kts | 308° |
| 2026-04-22 01:09 | 5.94934 | -55.79075 | 9976 ft | 163 kts | 308° |
| 2026-04-22 01:09 | 5.95654 | -55.79951 | 9982 ft | 163 kts | 308° |
| 2026-04-22 01:09 | 5.96368 | -55.80821 | 9980 ft | 163 kts | 308° |
| 2026-04-22 01:10 | 5.97088 | -55.81698 | 9981 ft | 163 kts | 308° |
| 2026-04-22 01:10 | 5.97809 | -55.82576 | 9980 ft | 163 kts | 308° |
| 2026-04-22 01:10 | 5.98529 | -55.83453 | 9980 ft | 162 kts | 308° |
| 2026-04-22 01:10 | 5.99247 | -55.84327 | 9981 ft | 162 kts | 308° |
| 2026-04-22 01:11 | 5.99964 | -55.85201 | 9977 ft | 162 kts | 308° |
| 2026-04-22 01:11 | 6.00681 | -55.86075 | 9975 ft | 162 kts | 308° |
| 2026-04-22 01:11 | 6.01397 | -55.86947 | 9977 ft | 162 kts | 308° |
| 2026-04-22 01:11 | 6.02112 | -55.87818 | 9975 ft | 162 kts | 308° |
| 2026-04-22 01:12 | 6.02826 | -55.88689 | 9976 ft | 162 kts | 308° |
| 2026-04-22 01:12 | 6.03532 | -55.89549 | 9977 ft | 161 kts | 308° |
| 2026-04-22 01:12 | 6.04246 | -55.90419 | 9975 ft | 161 kts | 308° |
| 2026-04-22 01:12 | 6.04960 | -55.91289 | 9966 ft | 161 kts | 308° |
| 2026-04-22 01:13 | 6.05674 | -55.92160 | 9972 ft | 161 kts | 308° |
| 2026-04-22 01:13 | 6.06388 | -55.93029 | 9977 ft | 161 kts | 308° |
| 2026-04-22 01:13 | 6.07102 | -55.93899 | 9977 ft | 161 kts | 308° |
| 2026-04-22 01:13 | 6.07814 | -55.94768 | 9977 ft | 161 kts | 308° |
| 2026-04-22 01:14 | 6.08528 | -55.95637 | 9978 ft | 161 kts | 308° |
| 2026-04-22 01:14 | 6.09240 | -55.96505 | 9976 ft | 161 kts | 308° |
| 2026-04-22 01:14 | 6.09951 | -55.97373 | 9976 ft | 161 kts | 308° |
| 2026-04-22 01:14 | 6.10663 | -55.98240 | 9968 ft | 161 kts | 308° |
| 2026-04-22 01:15 | 6.11375 | -55.99108 | 9974 ft | 161 kts | 308° |
| 2026-04-22 01:15 | 6.12086 | -55.99975 | 9971 ft | 161 kts | 308° |
| 2026-04-22 01:15 | 6.12799 | -56.00845 | 9974 ft | 161 kts | 308° |
| 2026-04-22 01:15 | 6.13513 | -56.01715 | 9974 ft | 161 kts | 308° |
| 2026-04-22 01:16 | 6.14219 | -56.02576 | 9973 ft | 162 kts | 308° |
| 2026-04-22 01:16 | 6.14934 | -56.03448 | 9973 ft | 162 kts | 308° |
| 2026-04-22 01:16 | 6.15658 | -56.04330 | 9975 ft | 161 kts | 308° |
| 2026-04-22 01:16 | 6.16364 | -56.05191 | 9976 ft | 161 kts | 308° |
| 2026-04-22 01:17 | 6.17076 | -56.06060 | 9979 ft | 161 kts | 308° |
| 2026-04-22 01:17 | 6.17788 | -56.06928 | 9969 ft | 161 kts | 308° |
| 2026-04-22 01:17 | 6.18498 | -56.07795 | 9976 ft | 160 kts | 308° |
| 2026-04-22 01:17 | 6.19207 | -56.08659 | 9976 ft | 160 kts | 308° |
| 2026-04-22 01:18 | 6.19917 | -56.09525 | 9974 ft | 160 kts | 308° |
| 2026-04-22 01:18 | 6.20627 | -56.10391 | 9973 ft | 160 kts | 308° |
| 2026-04-22 01:18 | 6.21336 | -56.11256 | 9979 ft | 160 kts | 308° |
| 2026-04-22 01:18 | 6.22046 | -56.12122 | 9978 ft | 160 kts | 308° |
| 2026-04-22 01:19 | 6.22756 | -56.12989 | 9975 ft | 160 kts | 308° |
| 2026-04-22 01:19 | 6.23466 | -56.13855 | 9976 ft | 160 kts | 308° |
| 2026-04-22 01:19 | 6.24176 | -56.14721 | 9976 ft | 160 kts | 308° |
| 2026-04-22 01:19 | 6.24876 | -56.15575 | 9976 ft | 160 kts | 308° |
| 2026-04-22 01:20 | 6.25586 | -56.16442 | 9976 ft | 160 kts | 308° |
| 2026-04-22 01:20 | 6.26295 | -56.17306 | 9978 ft | 160 kts | 308° |
| 2026-04-22 01:20 | 6.27005 | -56.18173 | 9979 ft | 160 kts | 308° |
| 2026-04-22 01:20 | 6.27714 | -56.19039 | 9977 ft | 160 kts | 308° |
| 2026-04-22 01:21 | 6.28423 | -56.19903 | 9976 ft | 160 kts | 309° |
| 2026-04-22 01:21 | 6.29131 | -56.20768 | 9975 ft | 160 kts | 309° |
| 2026-04-22 01:21 | 6.29841 | -56.21634 | 9970 ft | 160 kts | 309° |
| 2026-04-22 01:21 | 6.30549 | -56.22498 | 9976 ft | 160 kts | 308° |
| 2026-04-22 01:22 | 6.31258 | -56.23364 | 9980 ft | 160 kts | 308° |
| 2026-04-22 01:22 | 6.31729 | -56.23939 | 9977 ft | 161 kts | 308° |
| 2026-04-22 01:22 | 6.32670 | -56.25088 | 9976 ft | 161 kts | 308° |
| 2026-04-22 01:22 | 6.33382 | -56.25957 | 9979 ft | 161 kts | 308° |
| 2026-04-22 01:23 | 6.34093 | -56.26825 | 9979 ft | 161 kts | 309° |
| 2026-04-22 01:23 | 6.34805 | -56.27695 | 9984 ft | 161 kts | 309° |
| 2026-04-22 01:23 | 6.35275 | -56.28269 | 9978 ft | 161 kts | 309° |
| 2026-04-22 01:23 | 6.35987 | -56.29138 | 9973 ft | 161 kts | 309° |
| 2026-04-22 01:24 | 6.36697 | -56.30005 | 9981 ft | 161 kts | 309° |
| 2026-04-22 01:24 | 6.37407 | -56.30872 | 9980 ft | 161 kts | 309° |
| 2026-04-22 01:24 | 6.38118 | -56.31740 | 9975 ft | 161 kts | 309° |
| 2026-04-22 01:24 | 6.38827 | -56.32607 | 9978 ft | 161 kts | 309° |
| 2026-04-22 01:25 | 6.39768 | -56.33756 | 9980 ft | 160 kts | 309° |
| 2026-04-22 01:25 | 6.40247 | -56.34341 | 9981 ft | 160 kts | 309° |
| 2026-04-22 01:25 | 6.40957 | -56.35208 | 9977 ft | 160 kts | 309° |
| 2026-04-22 01:25 | 6.41656 | -56.36061 | 9974 ft | 160 kts | 309° |
| 2026-04-22 01:26 | 6.42363 | -56.36926 | 9976 ft | 160 kts | 309° |
| 2026-04-22 01:26 | 6.43070 | -56.37790 | 9975 ft | 160 kts | 309° |
| 2026-04-22 01:26 | 6.43779 | -56.38655 | 9976 ft | 160 kts | 309° |
| 2026-04-22 01:26 | 6.44486 | -56.39520 | 9976 ft | 160 kts | 309° |
| 2026-04-22 01:27 | 6.45194 | -56.40384 | 9976 ft | 160 kts | 309° |
| 2026-04-22 01:27 | 6.45902 | -56.41249 | 9980 ft | 160 kts | 309° |
| 2026-04-22 01:27 | 6.46610 | -56.42115 | 9980 ft | 160 kts | 309° |
| 2026-04-22 01:27 | 6.47316 | -56.42978 | 9979 ft | 160 kts | 309° |
| 2026-04-22 01:28 | 6.48024 | -56.43843 | 9980 ft | 160 kts | 309° |
| 2026-04-22 01:28 | 6.48730 | -56.44706 | 9980 ft | 160 kts | 309° |
| 2026-04-22 01:28 | 6.49437 | -56.45570 | 9976 ft | 160 kts | 309° |
| 2026-04-22 01:28 | 6.50135 | -56.46424 | 9979 ft | 160 kts | 309° |
| 2026-04-22 01:29 | 6.50841 | -56.47286 | 9980 ft | 160 kts | 309° |
| 2026-04-22 01:29 | 6.51546 | -56.48147 | 9980 ft | 159 kts | 309° |
| 2026-04-22 01:29 | 6.52250 | -56.49008 | 9979 ft | 159 kts | 309° |
| 2026-04-22 01:29 | 6.52955 | -56.49870 | 9980 ft | 159 kts | 309° |
| 2026-04-22 01:30 | 6.53659 | -56.50731 | 9980 ft | 159 kts | 309° |
| 2026-04-22 01:30 | 6.54363 | -56.51592 | 9982 ft | 159 kts | 309° |
| 2026-04-22 01:30 | 6.55070 | -56.52456 | 9980 ft | 159 kts | 309° |
| 2026-04-22 01:30 | 6.55772 | -56.53315 | 9979 ft | 159 kts | 309° |
| 2026-04-22 01:31 | 6.56474 | -56.54173 | 9985 ft | 159 kts | 309° |
| 2026-04-22 01:31 | 6.57176 | -56.55031 | 9980 ft | 159 kts | 309° |
| 2026-04-22 01:31 | 6.57869 | -56.55879 | 9978 ft | 159 kts | 309° |
| 2026-04-22 01:31 | 6.58570 | -56.56736 | 9981 ft | 159 kts | 309° |
| 2026-04-22 01:32 | 6.59273 | -56.57596 | 9981 ft | 159 kts | 309° |
| 2026-04-22 01:32 | 6.59975 | -56.58455 | 9976 ft | 159 kts | 309° |
| 2026-04-22 01:32 | 6.60681 | -56.59319 | 9977 ft | 159 kts | 309° |
| 2026-04-22 01:32 | 6.61387 | -56.60181 | 9980 ft | 160 kts | 309° |
| 2026-04-22 01:33 | 6.62091 | -56.61043 | 9978 ft | 160 kts | 309° |
| 2026-04-22 01:33 | 6.62798 | -56.61908 | 9972 ft | 160 kts | 309° |
| 2026-04-22 01:33 | 6.63503 | -56.62771 | 9980 ft | 160 kts | 309° |
| 2026-04-22 01:33 | 6.64211 | -56.63637 | 9979 ft | 160 kts | 309° |
| 2026-04-22 01:34 | 6.64916 | -56.64499 | 9979 ft | 160 kts | 309° |
| 2026-04-22 01:34 | 6.65612 | -56.65351 | 9983 ft | 159 kts | 309° |
| 2026-04-22 01:34 | 6.66317 | -56.66214 | 9980 ft | 159 kts | 309° |
| 2026-04-22 01:34 | 6.67023 | -56.67077 | 9981 ft | 159 kts | 309° |
| 2026-04-22 01:35 | 6.67727 | -56.67940 | 9982 ft | 159 kts | 309° |
| 2026-04-22 01:35 | 6.68431 | -56.68801 | 9985 ft | 159 kts | 309° |
| 2026-04-22 01:35 | 6.69134 | -56.69662 | 9983 ft | 159 kts | 309° |
| 2026-04-22 01:35 | 6.69838 | -56.70523 | 9982 ft | 159 kts | 309° |
| 2026-04-22 01:36 | 6.70542 | -56.71384 | 9977 ft | 159 kts | 309° |
| 2026-04-22 01:36 | 6.71244 | -56.72245 | 9982 ft | 159 kts | 309° |
| 2026-04-22 01:36 | 6.71949 | -56.73107 | 9982 ft | 159 kts | 309° |
| 2026-04-22 01:36 | 6.72651 | -56.73967 | 9982 ft | 159 kts | 309° |
| 2026-04-22 01:37 | 6.73355 | -56.74828 | 9981 ft | 159 kts | 309° |
| 2026-04-22 01:37 | 6.74048 | -56.75677 | 9983 ft | 159 kts | 309° |
| 2026-04-22 01:37 | 6.74752 | -56.76539 | 9983 ft | 159 kts | 309° |
| 2026-04-22 01:37 | 6.75455 | -56.77400 | 9982 ft | 159 kts | 309° |
| 2026-04-22 01:38 | 6.76159 | -56.78261 | 9981 ft | 159 kts | 309° |
| 2026-04-22 01:38 | 6.76860 | -56.79120 | 9982 ft | 159 kts | 309° |
| 2026-04-22 01:38 | 6.77562 | -56.79979 | 9984 ft | 159 kts | 309° |
| 2026-04-22 01:38 | 6.78263 | -56.80839 | 9983 ft | 159 kts | 309° |
| 2026-04-22 01:39 | 6.78966 | -56.81699 | 9981 ft | 159 kts | 309° |
| 2026-04-22 01:39 | 6.79669 | -56.82561 | 9985 ft | 159 kts | 309° |
| 2026-04-22 01:39 | 6.80372 | -56.83422 | 9985 ft | 159 kts | 309° |
| 2026-04-22 01:39 | 6.81064 | -56.84269 | 9983 ft | 159 kts | 309° |
| 2026-04-22 01:40 | 6.81765 | -56.85128 | 9985 ft | 159 kts | 309° |
| 2026-04-22 01:40 | 6.82467 | -56.85988 | 9984 ft | 159 kts | 309° |
| 2026-04-22 01:40 | 6.83168 | -56.86847 | 9980 ft | 159 kts | 309° |
| 2026-04-22 01:40 | 6.83870 | -56.87706 | 9984 ft | 159 kts | 309° |
| 2026-04-22 01:41 | 6.84571 | -56.88566 | 9980 ft | 159 kts | 309° |
| 2026-04-22 01:41 | 6.85274 | -56.89427 | 9982 ft | 159 kts | 309° |
| 2026-04-22 01:41 | 6.85977 | -56.90288 | 9984 ft | 159 kts | 309° |
| 2026-04-22 01:41 | 6.86679 | -56.91149 | 9983 ft | 159 kts | 309° |
| 2026-04-22 01:42 | 6.87372 | -56.91998 | 9983 ft | 159 kts | 309° |
| 2026-04-22 01:42 | 6.88073 | -56.92857 | 9982 ft | 159 kts | 309° |
| 2026-04-22 01:42 | 6.88774 | -56.93717 | 9983 ft | 159 kts | 309° |
| 2026-04-22 01:42 | 6.89474 | -56.94575 | 9977 ft | 159 kts | 309° |
| 2026-04-22 01:43 | 6.90173 | -56.95431 | 9982 ft | 158 kts | 309° |
| 2026-04-22 01:43 | 6.90873 | -56.96290 | 9985 ft | 158 kts | 309° |
| 2026-04-22 01:43 | 6.91572 | -56.97146 | 9986 ft | 158 kts | 309° |
| 2026-04-22 01:43 | 6.92269 | -56.98002 | 9978 ft | 158 kts | 309° |
| 2026-04-22 01:44 | 6.92966 | -56.98856 | 9981 ft | 158 kts | 309° |
| 2026-04-22 01:44 | 6.93666 | -56.99714 | 9984 ft | 158 kts | 309° |
| 2026-04-22 01:44 | 6.94363 | -57.00569 | 9985 ft | 158 kts | 309° |
| 2026-04-22 01:44 | 6.95060 | -57.01424 | 9978 ft | 158 kts | 309° |
| 2026-04-22 01:45 | 6.95749 | -57.02268 | 9983 ft | 158 kts | 309° |
| 2026-04-22 01:45 | 6.96445 | -57.03122 | 9981 ft | 158 kts | 309° |
| 2026-04-22 01:45 | 6.97140 | -57.03974 | 9982 ft | 157 kts | 309° |
| 2026-04-22 01:45 | 6.97836 | -57.04827 | 9984 ft | 157 kts | 309° |
| 2026-04-22 01:46 | 6.98531 | -57.05680 | 9979 ft | 157 kts | 309° |
| 2026-04-22 01:46 | 6.99225 | -57.06531 | 9982 ft | 158 kts | 309° |
| 2026-04-22 01:46 | 6.99920 | -57.07384 | 9982 ft | 158 kts | 309° |
| 2026-04-22 01:46 | 7.00616 | -57.08238 | 9983 ft | 157 kts | 309° |
| 2026-04-22 01:47 | 7.01311 | -57.09090 | 9981 ft | 157 kts | 309° |
| 2026-04-22 01:47 | 7.02005 | -57.09942 | 9984 ft | 157 kts | 309° |
| 2026-04-22 01:47 | 7.02700 | -57.10794 | 9985 ft | 157 kts | 309° |
| 2026-04-22 01:47 | 7.03396 | -57.11648 | 9986 ft | 157 kts | 309° |
| 2026-04-22 01:48 | 7.04091 | -57.12501 | 9981 ft | 157 kts | 309° |
| 2026-04-22 01:48 | 7.04786 | -57.13353 | 9983 ft | 158 kts | 309° |
| 2026-04-22 01:48 | 7.05481 | -57.14206 | 9984 ft | 158 kts | 309° |
| 2026-04-22 01:48 | 7.06169 | -57.15051 | 9983 ft | 158 kts | 309° |
| 2026-04-22 01:49 | 7.06864 | -57.15903 | 9986 ft | 158 kts | 309° |
| 2026-04-22 01:49 | 7.07559 | -57.16757 | 9983 ft | 158 kts | 309° |
| 2026-04-22 01:49 | 7.08254 | -57.17609 | 9983 ft | 158 kts | 309° |
| 2026-04-22 01:49 | 7.08949 | -57.18463 | 9988 ft | 158 kts | 309° |
| 2026-04-22 01:50 | 7.09644 | -57.19315 | 9983 ft | 158 kts | 309° |
| 2026-04-22 01:50 | 7.10339 | -57.20169 | 9986 ft | 157 kts | 309° |
| 2026-04-22 01:50 | 7.11034 | -57.21022 | 9989 ft | 158 kts | 309° |
| 2026-04-22 01:50 | 7.11730 | -57.21877 | 9989 ft | 158 kts | 309° |
| 2026-04-22 01:51 | 7.12426 | -57.22731 | 9990 ft | 158 kts | 309° |
| 2026-04-22 01:51 | 7.13122 | -57.23586 | 9994 ft | 158 kts | 309° |
| 2026-04-22 01:51 | 7.13818 | -57.24441 | 9992 ft | 158 kts | 309° |
| 2026-04-22 01:51 | 7.14513 | -57.25294 | 9993 ft | 158 kts | 309° |
| 2026-04-22 01:52 | 7.15208 | -57.26147 | 9991 ft | 158 kts | 309° |
| 2026-04-22 01:52 | 7.15904 | -57.27002 | 9990 ft | 158 kts | 309° |
| 2026-04-22 01:52 | 7.16599 | -57.27855 | 9989 ft | 158 kts | 309° |
| 2026-04-22 01:52 | 7.17293 | -57.28708 | 9990 ft | 157 kts | 309° |
| 2026-04-22 01:53 | 7.17988 | -57.29561 | 9987 ft | 157 kts | 309° |
| 2026-04-22 01:53 | 7.18674 | -57.30404 | 9989 ft | 157 kts | 309° |
| 2026-04-22 01:53 | 7.19368 | -57.31257 | 9985 ft | 157 kts | 309° |
| 2026-04-22 01:53 | 7.20063 | -57.32110 | 9986 ft | 157 kts | 309° |
| 2026-04-22 01:54 | 7.20757 | -57.32963 | 9990 ft | 157 kts | 309° |
| 2026-04-22 01:54 | 7.21451 | -57.33816 | 9988 ft | 157 kts | 309° |
| 2026-04-22 01:54 | 7.22144 | -57.34668 | 9989 ft | 157 kts | 309° |
| 2026-04-22 01:54 | 7.22838 | -57.35520 | 9990 ft | 157 kts | 308° |
| 2026-04-22 01:55 | 7.23534 | -57.36375 | 9985 ft | 157 kts | 308° |
| 2026-04-22 01:55 | 7.24228 | -57.37228 | 9991 ft | 157 kts | 308° |
| 2026-04-22 01:55 | 7.24922 | -57.38081 | 9990 ft | 157 kts | 308° |
| 2026-04-22 01:55 | 7.25616 | -57.38934 | 9990 ft | 157 kts | 308° |
| 2026-04-22 01:56 | 7.26308 | -57.39785 | 9991 ft | 157 kts | 308° |
| 2026-04-22 01:56 | 7.26992 | -57.40626 | 9993 ft | 157 kts | 308° |
| 2026-04-22 01:56 | 7.27685 | -57.41477 | 9991 ft | 157 kts | 308° |
| 2026-04-22 01:56 | 7.28377 | -57.42328 | 9984 ft | 157 kts | 308° |
| 2026-04-22 01:57 | 7.29070 | -57.43179 | 9987 ft | 157 kts | 308° |
| 2026-04-22 01:57 | 7.29761 | -57.44029 | 9989 ft | 157 kts | 308° |
| 2026-04-22 01:57 | 7.30453 | -57.44880 | 9986 ft | 157 kts | 308° |
| 2026-04-22 01:57 | 7.31145 | -57.45731 | 9989 ft | 157 kts | 308° |
| 2026-04-22 01:58 | 7.31837 | -57.46581 | 9987 ft | 157 kts | 308° |
| 2026-04-22 01:58 | 7.32530 | -57.47433 | 9991 ft | 157 kts | 308° |
| 2026-04-22 01:58 | 7.33221 | -57.48283 | 9988 ft | 157 kts | 308° |
| 2026-04-22 01:58 | 7.33913 | -57.49134 | 9986 ft | 157 kts | 308° |
| 2026-04-22 01:59 | 7.34604 | -57.49984 | 9984 ft | 157 kts | 308° |
| 2026-04-22 01:59 | 7.35296 | -57.50835 | 9989 ft | 157 kts | 308° |
| 2026-04-22 01:59 | 7.35988 | -57.51689 | 9990 ft | 157 kts | 308° |
| 2026-04-22 01:59 | 7.36669 | -57.52531 | 9990 ft | 157 kts | 308° |
| 2026-04-22 02:00 | 7.37359 | -57.53384 | 9987 ft | 157 kts | 308° |
| 2026-04-22 02:00 | 7.38048 | -57.54236 | 9992 ft | 157 kts | 308° |
| 2026-04-22 02:00 | 7.38741 | -57.55092 | 9989 ft | 157 kts | 308° |
| 2026-04-22 02:00 | 7.39429 | -57.55943 | 9989 ft | 157 kts | 308° |
| 2026-04-22 02:01 | 7.40119 | -57.56796 | 9990 ft | 157 kts | 308° |
| 2026-04-22 02:01 | 7.40809 | -57.57648 | 9990 ft | 157 kts | 308° |
| 2026-04-22 02:01 | 7.41490 | -57.58491 | 9989 ft | 157 kts | 308° |
| 2026-04-22 02:01 | 7.42180 | -57.59343 | 9988 ft | 157 kts | 308° |
| 2026-04-22 02:02 | 7.42867 | -57.60193 | 9988 ft | 157 kts | 308° |
| 2026-04-22 02:02 | 7.43563 | -57.61053 | 9991 ft | 156 kts | 307° |
| 2026-04-22 02:02 | 7.44242 | -57.61893 | 9984 ft | 156 kts | 308° |
| 2026-04-22 02:02 | 7.44929 | -57.62743 | 9991 ft | 156 kts | 308° |
| 2026-04-22 02:03 | 7.45617 | -57.63593 | 9993 ft | 157 kts | 307° |
| 2026-04-22 02:03 | 7.46306 | -57.64445 | 9995 ft | 157 kts | 308° |
| 2026-04-22 02:03 | 7.46994 | -57.65296 | 9994 ft | 157 kts | 308° |
| 2026-04-22 02:03 | 7.47682 | -57.66147 | 9989 ft | 156 kts | 308° |
| 2026-04-22 02:04 | 7.49057 | -57.67848 | 9994 ft | 156 kts | 307° |
| 2026-04-22 02:04 | 7.49744 | -57.68698 | 9993 ft | 156 kts | 308° |
| 2026-04-22 02:04 | 7.50431 | -57.69548 | 9996 ft | 156 kts | 308° |
| 2026-04-22 02:05 | 7.51118 | -57.70398 | 9995 ft | 156 kts | 308° |
| 2026-04-22 02:05 | 7.51806 | -57.71250 | 9992 ft | 157 kts | 307° |
| 2026-04-22 02:05 | 7.52488 | -57.72093 | 9996 ft | 157 kts | 308° |
| 2026-04-22 02:05 | 7.53177 | -57.72945 | 9993 ft | 157 kts | 308° |
| 2026-04-22 02:06 | 7.53865 | -57.73797 | 9993 ft | 157 kts | 308° |
| 2026-04-22 02:06 | 7.54555 | -57.74650 | 9995 ft | 157 kts | 308° |
| 2026-04-22 02:06 | 7.55244 | -57.75503 | 9990 ft | 157 kts | 307° |
| 2026-04-22 02:06 | 7.55932 | -57.76355 | 9994 ft | 157 kts | 307° |
| 2026-04-22 02:07 | 7.56621 | -57.77208 | 9988 ft | 157 kts | 308° |
| 2026-04-22 02:07 | 7.57310 | -57.78061 | 9993 ft | 156 kts | 308° |
| 2026-04-22 02:07 | 7.57997 | -57.78912 | 9994 ft | 156 kts | 307° |
| 2026-04-22 02:07 | 7.58684 | -57.79762 | 9993 ft | 156 kts | 308° |
| 2026-04-22 02:08 | 7.59370 | -57.80611 | 9988 ft | 156 kts | 307° |
| 2026-04-22 02:08 | 7.60057 | -57.81461 | 9993 ft | 156 kts | 307° |
| 2026-04-22 02:08 | 7.60742 | -57.82310 | 9986 ft | 156 kts | 307° |
| 2026-04-22 02:08 | 7.61429 | -57.83160 | 9987 ft | 156 kts | 308° |
| 2026-04-22 02:09 | 7.62116 | -57.84012 | 9993 ft | 156 kts | 308° |
| 2026-04-22 02:09 | 7.62571 | -57.84575 | 9992 ft | 156 kts | 308° |
| 2026-04-22 02:09 | 7.63258 | -57.85425 | 9989 ft | 156 kts | 307° |
| 2026-04-22 02:09 | 7.64176 | -57.86563 | 9993 ft | 156 kts | 308° |
| 2026-04-22 02:10 | 7.64632 | -57.87127 | 9992 ft | 156 kts | 307° |
| 2026-04-22 02:10 | 7.65319 | -57.87978 | 9993 ft | 157 kts | 308° |
| 2026-04-22 02:10 | 7.66007 | -57.88830 | 9994 ft | 157 kts | 307° |
| 2026-04-22 02:10 | 7.66697 | -57.89682 | 9992 ft | 157 kts | 308° |
| 2026-04-22 02:11 | 7.67388 | -57.90533 | 9993 ft | 157 kts | 308° |
| 2026-04-22 02:11 | 7.68081 | -57.91386 | 9986 ft | 157 kts | 308° |
| 2026-04-22 02:11 | 7.68771 | -57.92236 | 9992 ft | 157 kts | 308° |
| 2026-04-22 02:11 | 7.69461 | -57.93086 | 9991 ft | 157 kts | 308° |
| 2026-04-22 02:12 | 7.70151 | -57.93937 | 9996 ft | 157 kts | 308° |
| 2026-04-22 02:12 | 7.70844 | -57.94790 | 9995 ft | 157 kts | 308° |
| 2026-04-22 02:12 | 7.71527 | -57.95632 | 9993 ft | 157 kts | 308° |
| 2026-04-22 02:12 | 7.72220 | -57.96486 | 9995 ft | 157 kts | 308° |
| 2026-04-22 02:13 | 7.72913 | -57.97339 | 9990 ft | 157 kts | 308° |
| 2026-04-22 02:13 | 7.73605 | -57.98192 | 9992 ft | 157 kts | 308° |
| 2026-04-22 02:13 | 7.74297 | -57.99045 | 9993 ft | 157 kts | 308° |
| 2026-04-22 02:13 | 7.74987 | -57.99895 | 9995 ft | 157 kts | 308° |
| 2026-04-22 02:14 | 7.75678 | -58.00747 | 9992 ft | 157 kts | 308° |
| 2026-04-22 02:14 | 7.76369 | -58.01599 | 9993 ft | 157 kts | 308° |
| 2026-04-22 02:14 | 7.77060 | -58.02451 | 9987 ft | 157 kts | 308° |
| 2026-04-22 02:14 | 7.77753 | -58.03305 | 9990 ft | 157 kts | 308° |
| 2026-04-22 02:15 | 7.78444 | -58.04157 | 9985 ft | 157 kts | 307° |
| 2026-04-22 02:15 | 7.79136 | -58.05010 | 9992 ft | 157 kts | 308° |
| 2026-04-22 02:15 | 7.79829 | -58.05864 | 9992 ft | 157 kts | 308° |
| 2026-04-22 02:15 | 7.80512 | -58.06706 | 9991 ft | 157 kts | 308° |
| 2026-04-22 02:16 | 7.81205 | -58.07561 | 9990 ft | 157 kts | 308° |
| 2026-04-22 02:16 | 7.81898 | -58.08415 | 9989 ft | 157 kts | 307° |
| 2026-04-22 02:16 | 7.82591 | -58.09270 | 9992 ft | 158 kts | 307° |
| 2026-04-22 02:16 | 7.83287 | -58.10128 | 9992 ft | 158 kts | 307° |
| 2026-04-22 02:17 | 7.83983 | -58.10986 | 9984 ft | 158 kts | 307° |
| 2026-04-22 02:17 | 7.84677 | -58.11842 | 9990 ft | 158 kts | 307° |
| 2026-04-22 02:17 | 7.85371 | -58.12698 | 9989 ft | 158 kts | 308° |
| 2026-04-22 02:17 | 7.86065 | -58.13555 | 9991 ft | 157 kts | 307° |
| 2026-04-22 02:18 | 7.86759 | -58.14411 | 9993 ft | 157 kts | 307° |
| 2026-04-22 02:18 | 7.87452 | -58.15266 | 9991 ft | 157 kts | 307° |
| 2026-04-22 02:18 | 7.88145 | -58.16121 | 9991 ft | 157 kts | 308° |
| 2026-04-22 02:18 | 7.88837 | -58.16975 | 9991 ft | 157 kts | 307° |
| 2026-04-22 02:19 | 7.89521 | -58.17819 | 9987 ft | 157 kts | 307° |
| 2026-04-22 02:19 | 7.90214 | -58.18675 | 9985 ft | 157 kts | 308° |
| 2026-04-22 02:19 | 7.90909 | -58.19531 | 9994 ft | 158 kts | 307° |
| 2026-04-22 02:19 | 7.91603 | -58.20388 | 9989 ft | 158 kts | 307° |
| 2026-04-22 02:20 | 7.92296 | -58.21244 | 9990 ft | 158 kts | 308° |
| 2026-04-22 02:20 | 7.92989 | -58.22099 | 9989 ft | 157 kts | 307° |
| 2026-04-22 02:20 | 7.93683 | -58.22955 | 9991 ft | 157 kts | 308° |
| 2026-04-22 02:20 | 7.94376 | -58.23810 | 9984 ft | 157 kts | 308° |
| 2026-04-22 02:21 | 7.95069 | -58.24666 | 9988 ft | 157 kts | 308° |
| 2026-04-22 02:21 | 7.95762 | -58.25522 | 9991 ft | 157 kts | 308° |
| 2026-04-22 02:21 | 7.96456 | -58.26378 | 9991 ft | 158 kts | 308° |
| 2026-04-22 02:21 | 7.97149 | -58.27234 | 9990 ft | 158 kts | 308° |
| 2026-04-22 02:22 | 7.97843 | -58.28092 | 9991 ft | 158 kts | 308° |
| 2026-04-22 02:22 | 7.98530 | -58.28940 | 9989 ft | 158 kts | 308° |
| 2026-04-22 02:22 | 7.99223 | -58.29796 | 9991 ft | 158 kts | 308° |
| 2026-04-22 02:22 | 7.99918 | -58.30654 | 9990 ft | 158 kts | 308° |
| 2026-04-22 02:23 | 8.00613 | -58.31513 | 9992 ft | 158 kts | 308° |
| 2026-04-22 02:23 | 8.01307 | -58.32369 | 9990 ft | 158 kts | 308° |
| 2026-04-22 02:23 | 8.02002 | -58.33228 | 9990 ft | 158 kts | 308° |
| 2026-04-22 02:23 | 8.02697 | -58.34086 | 9989 ft | 158 kts | 307° |
| 2026-04-22 02:24 | 8.03392 | -58.34945 | 9989 ft | 158 kts | 308° |
| 2026-04-22 02:24 | 8.04087 | -58.35803 | 9992 ft | 158 kts | 308° |
| 2026-04-22 02:24 | 8.04781 | -58.36661 | 9990 ft | 158 kts | 308° |
| 2026-04-22 02:24 | 8.05475 | -58.37519 | 9992 ft | 158 kts | 307° |
| 2026-04-22 02:25 | 8.06168 | -58.38375 | 9991 ft | 158 kts | 308° |
| 2026-04-22 02:25 | 8.06863 | -58.39234 | 9991 ft | 158 kts | 307° |
| 2026-04-22 02:25 | 8.07558 | -58.40093 | 9991 ft | 158 kts | 307° |
| 2026-04-22 02:25 | 8.08252 | -58.40950 | 9987 ft | 158 kts | 307° |
| 2026-04-22 02:26 | 8.08946 | -58.41808 | 9983 ft | 158 kts | 307° |
| 2026-04-22 02:26 | 8.09640 | -58.42667 | 9991 ft | 158 kts | 308° |
| 2026-04-22 02:26 | 8.10325 | -58.43512 | 9989 ft | 158 kts | 307° |
| 2026-04-22 02:26 | 8.11018 | -58.44370 | 9981 ft | 158 kts | 308° |
| 2026-04-22 02:27 | 8.11713 | -58.45229 | 9990 ft | 158 kts | 308° |
| 2026-04-22 02:27 | 8.12407 | -58.46086 | 9990 ft | 158 kts | 308° |
| 2026-04-22 02:27 | 8.13101 | -58.46945 | 9991 ft | 158 kts | 308° |
| 2026-04-22 02:27 | 8.13795 | -58.47803 | 9983 ft | 158 kts | 308° |
| 2026-04-22 02:28 | 8.14488 | -58.48661 | 9991 ft | 158 kts | 308° |
| 2026-04-22 02:28 | 8.15182 | -58.49518 | 9989 ft | 158 kts | 308° |
| 2026-04-22 02:28 | 8.15877 | -58.50378 | 9990 ft | 158 kts | 308° |
| 2026-04-22 02:28 | 8.16571 | -58.51236 | 9989 ft | 158 kts | 308° |
| 2026-04-22 02:29 | 8.17266 | -58.52096 | 9989 ft | 158 kts | 308° |
| 2026-04-22 02:29 | 8.17951 | -58.52942 | 9990 ft | 158 kts | 308° |
| 2026-04-22 02:29 | 8.18644 | -58.53800 | 9990 ft | 158 kts | 308° |
| 2026-04-22 02:29 | 8.19336 | -58.54657 | 9989 ft | 157 kts | 308° |
| 2026-04-22 02:30 | 8.20029 | -58.55514 | 9985 ft | 157 kts | 308° |
| 2026-04-22 02:30 | 8.20720 | -58.56369 | 9985 ft | 157 kts | 308° |
| 2026-04-22 02:30 | 8.21410 | -58.57223 | 9983 ft | 157 kts | 308° |
| 2026-04-22 02:30 | 8.22104 | -58.58080 | 9991 ft | 157 kts | 308° |
| 2026-04-22 02:31 | 8.22796 | -58.58937 | 9990 ft | 157 kts | 307° |
| 2026-04-22 02:31 | 8.23486 | -58.59792 | 9989 ft | 157 kts | 308° |
| 2026-04-22 02:31 | 8.24168 | -58.60635 | 9989 ft | 157 kts | 308° |
| 2026-04-22 02:31 | 8.24858 | -58.61489 | 9989 ft | 157 kts | 308° |
| 2026-04-22 02:32 | 8.25548 | -58.62343 | 9989 ft | 157 kts | 308° |
| 2026-04-22 02:32 | 8.26236 | -58.63195 | 9989 ft | 157 kts | 307° |
| 2026-04-22 02:32 | 8.26925 | -58.64048 | 9990 ft | 157 kts | 308° |
| 2026-04-22 02:32 | 8.27614 | -58.64901 | 9987 ft | 157 kts | 308° |
| 2026-04-22 02:33 | 8.28302 | -58.65753 | 9984 ft | 156 kts | 308° |
| 2026-04-22 02:33 | 8.28990 | -58.66605 | 9989 ft | 156 kts | 307° |
| 2026-04-22 02:33 | 8.29678 | -58.67456 | 9988 ft | 156 kts | 308° |
| 2026-04-22 02:33 | 8.30365 | -58.68307 | 9990 ft | 156 kts | 308° |
| 2026-04-22 02:34 | 8.31052 | -58.69158 | 9988 ft | 156 kts | 308° |
| 2026-04-22 02:34 | 8.31739 | -58.70009 | 9984 ft | 156 kts | 308° |
| 2026-04-22 02:34 | 8.32425 | -58.70859 | 9986 ft | 156 kts | 308° |
| 2026-04-22 02:34 | 8.33114 | -58.71711 | 9987 ft | 156 kts | 308° |
| 2026-04-22 02:35 | 8.33801 | -58.72562 | 9981 ft | 156 kts | 308° |
| 2026-04-22 02:35 | 8.34487 | -58.73413 | 9987 ft | 156 kts | 308° |
| 2026-04-22 02:35 | 8.35166 | -58.74254 | 9986 ft | 156 kts | 308° |
| 2026-04-22 02:35 | 8.35854 | -58.75106 | 9991 ft | 156 kts | 308° |
| 2026-04-22 02:36 | 8.36542 | -58.75959 | 9989 ft | 156 kts | 308° |
| 2026-04-22 02:36 | 8.37228 | -58.76808 | 9988 ft | 156 kts | 308° |
| 2026-04-22 02:36 | 8.37913 | -58.77657 | 9986 ft | 156 kts | 308° |
| 2026-04-22 02:36 | 8.38597 | -58.78505 | 9986 ft | 156 kts | 308° |
| 2026-04-22 02:37 | 8.39282 | -58.79353 | 9990 ft | 156 kts | 308° |
| 2026-04-22 02:37 | 8.39967 | -58.80203 | 9983 ft | 156 kts | 308° |
| 2026-04-22 02:37 | 8.40652 | -58.81052 | 9988 ft | 156 kts | 308° |
| 2026-04-22 02:37 | 8.41337 | -58.81900 | 9989 ft | 156 kts | 308° |
| 2026-04-22 02:38 | 8.42021 | -58.82749 | 9989 ft | 156 kts | 308° |
| 2026-04-22 02:38 | 8.42705 | -58.83597 | 9979 ft | 156 kts | 308° |
| 2026-04-22 02:38 | 8.43390 | -58.84446 | 9987 ft | 156 kts | 308° |
| 2026-04-22 02:38 | 8.44075 | -58.85295 | 9987 ft | 156 kts | 308° |
| 2026-04-22 02:39 | 8.44759 | -58.86144 | 9986 ft | 156 kts | 308° |
| 2026-04-22 02:39 | 8.45445 | -58.86994 | 9988 ft | 156 kts | 308° |
| 2026-04-22 02:39 | 8.46129 | -58.87842 | 9989 ft | 156 kts | 308° |
| 2026-04-22 02:39 | 8.46815 | -58.88693 | 9988 ft | 156 kts | 308° |
| 2026-04-22 02:40 | 8.47491 | -58.89532 | 9988 ft | 156 kts | 308° |
| 2026-04-22 02:40 | 8.48177 | -58.90382 | 9986 ft | 156 kts | 308° |
| 2026-04-22 02:40 | 8.48861 | -58.91230 | 9989 ft | 156 kts | 308° |
| 2026-04-22 02:40 | 8.49547 | -58.92081 | 9980 ft | 156 kts | 308° |
| 2026-04-22 02:41 | 8.50230 | -58.92929 | 9989 ft | 156 kts | 308° |
| 2026-04-22 02:41 | 8.50913 | -58.93776 | 9990 ft | 156 kts | 308° |
| 2026-04-22 02:41 | 8.51596 | -58.94624 | 9990 ft | 156 kts | 308° |
| 2026-04-22 02:41 | 8.52279 | -58.95471 | 9991 ft | 156 kts | 308° |
| 2026-04-22 02:42 | 8.52962 | -58.96319 | 9990 ft | 156 kts | 308° |
| 2026-04-22 02:42 | 8.53648 | -58.97169 | 9989 ft | 156 kts | 308° |
| 2026-04-22 02:42 | 8.54333 | -58.98019 | 9990 ft | 156 kts | 308° |
| 2026-04-22 02:42 | 8.55016 | -58.98868 | 9989 ft | 156 kts | 308° |
| 2026-04-22 02:43 | 8.55701 | -58.99717 | 9989 ft | 156 kts | 308° |
| 2026-04-22 02:43 | 8.56377 | -59.00556 | 9993 ft | 156 kts | 308° |
| 2026-04-22 02:43 | 8.57062 | -59.01406 | 9985 ft | 156 kts | 308° |
| 2026-04-22 02:43 | 8.57746 | -59.02255 | 9991 ft | 156 kts | 308° |
| 2026-04-22 02:44 | 8.58431 | -59.03106 | 9990 ft | 156 kts | 308° |
| 2026-04-22 02:44 | 8.59116 | -59.03956 | 9989 ft | 156 kts | 308° |
| 2026-04-22 02:44 | 8.59801 | -59.04807 | 9989 ft | 156 kts | 308° |
| 2026-04-22 02:44 | 8.60485 | -59.05657 | 9991 ft | 156 kts | 308° |
| 2026-04-22 02:45 | 8.61170 | -59.06507 | 9987 ft | 156 kts | 308° |
| 2026-04-22 02:45 | 8.61856 | -59.07359 | 9980 ft | 156 kts | 308° |
| 2026-04-22 02:45 | 8.62541 | -59.08210 | 9982 ft | 156 kts | 308° |
| 2026-04-22 02:45 | 8.63225 | -59.09059 | 9988 ft | 156 kts | 308° |
| 2026-04-22 02:46 | 8.63910 | -59.09911 | 9990 ft | 156 kts | 308° |
| 2026-04-22 02:46 | 8.64595 | -59.10762 | 9992 ft | 156 kts | 308° |
| 2026-04-22 02:46 | 8.65280 | -59.11612 | 9990 ft | 156 kts | 308° |
| 2026-04-22 02:46 | 8.65966 | -59.12464 | 9988 ft | 156 kts | 308° |
| 2026-04-22 02:47 | 8.66649 | -59.13314 | 9984 ft | 156 kts | 308° |
| 2026-04-22 02:47 | 8.67333 | -59.14163 | 9992 ft | 156 kts | 308° |
| 2026-04-22 02:47 | 8.68018 | -59.15014 | 9983 ft | 156 kts | 308° |
| 2026-04-22 02:47 | 8.68692 | -59.15852 | 9987 ft | 156 kts | 308° |
| 2026-04-22 02:48 | 8.69376 | -59.16703 | 9993 ft | 156 kts | 308° |
| 2026-04-22 02:48 | 8.70060 | -59.17552 | 9991 ft | 156 kts | 308° |
| 2026-04-22 02:48 | 8.70743 | -59.18401 | 9992 ft | 156 kts | 308° |
| 2026-04-22 02:48 | 8.71428 | -59.19252 | 9990 ft | 156 kts | 308° |
| 2026-04-22 02:49 | 8.72110 | -59.20100 | 9992 ft | 156 kts | 308° |
| 2026-04-22 02:49 | 8.72794 | -59.20951 | 9986 ft | 156 kts | 308° |
| 2026-04-22 02:49 | 8.73476 | -59.21799 | 9992 ft | 156 kts | 308° |
| 2026-04-22 02:49 | 8.74160 | -59.22648 | 9984 ft | 156 kts | 308° |
| 2026-04-22 02:50 | 8.74843 | -59.23499 | 9990 ft | 156 kts | 308° |
| 2026-04-22 02:50 | 8.75526 | -59.24347 | 9992 ft | 156 kts | 308° |
| 2026-04-22 02:50 | 8.76209 | -59.25197 | 9987 ft | 156 kts | 308° |
| 2026-04-22 02:50 | 8.76892 | -59.26046 | 9990 ft | 156 kts | 308° |
| 2026-04-22 02:51 | 8.77575 | -59.26896 | 9992 ft | 156 kts | 308° |
| 2026-04-22 02:51 | 8.78258 | -59.27745 | 9990 ft | 156 kts | 308° |
| 2026-04-22 02:51 | 8.78941 | -59.28595 | 9993 ft | 156 kts | 308° |
| 2026-04-22 02:51 | 8.79624 | -59.29445 | 9993 ft | 156 kts | 308° |
| 2026-04-22 02:52 | 8.80307 | -59.30294 | 9993 ft | 156 kts | 308° |
| 2026-04-22 02:52 | 8.80992 | -59.31146 | 9994 ft | 156 kts | 308° |
| 2026-04-22 02:52 | 8.81668 | -59.31987 | 9995 ft | 156 kts | 308° |
| 2026-04-22 02:52 | 8.82353 | -59.32840 | 9992 ft | 156 kts | 308° |
| 2026-04-22 02:53 | 8.83036 | -59.33691 | 9992 ft | 156 kts | 308° |
| 2026-04-22 02:53 | 8.83719 | -59.34540 | 9993 ft | 156 kts | 308° |
| 2026-04-22 02:53 | 8.84400 | -59.35388 | 9995 ft | 156 kts | 308° |
| 2026-04-22 02:53 | 8.85084 | -59.36239 | 9994 ft | 156 kts | 308° |
| 2026-04-22 02:54 | 8.85766 | -59.37088 | 9994 ft | 156 kts | 308° |
| 2026-04-22 02:54 | 8.86448 | -59.37937 | 9995 ft | 156 kts | 308° |
| 2026-04-22 02:54 | 8.87121 | -59.38775 | 9993 ft | 156 kts | 308° |
| 2026-04-22 02:54 | 8.87803 | -59.39623 | 9987 ft | 156 kts | 308° |
| 2026-04-22 02:55 | 8.88486 | -59.40473 | 9993 ft | 156 kts | 308° |
| 2026-04-22 02:55 | 8.89166 | -59.41321 | 9985 ft | 155 kts | 308° |
| 2026-04-22 02:55 | 8.89846 | -59.42167 | 9994 ft | 155 kts | 308° |
| 2026-04-22 02:55 | 8.90525 | -59.43013 | 9993 ft | 155 kts | 308° |
| 2026-04-22 02:56 | 8.90976 | -59.43574 | 9993 ft | 155 kts | 308° |
| 2026-04-22 02:56 | 8.91654 | -59.44418 | 9987 ft | 155 kts | 309° |
| 2026-04-22 02:56 | 8.92744 | -59.45361 | 9989 ft | 154 kts | 322° |
| 2026-04-22 02:56 | 8.93311 | -59.45798 | 9990 ft | 154 kts | 322° |
| 2026-04-22 02:57 | 8.94162 | -59.46459 | 9992 ft | 154 kts | 322° |
| 2026-04-22 02:57 | 8.95013 | -59.47124 | 9990 ft | 154 kts | 322° |
| 2026-04-22 02:57 | 8.95863 | -59.47788 | 9990 ft | 154 kts | 322° |
| 2026-04-22 02:57 | 8.96714 | -59.48452 | 9986 ft | 154 kts | 322° |
| 2026-04-22 02:58 | 8.97565 | -59.49117 | 9994 ft | 154 kts | 322° |
| 2026-04-22 02:58 | 8.98416 | -59.49781 | 9994 ft | 154 kts | 321° |
| 2026-04-22 02:58 | 8.99266 | -59.50446 | 9992 ft | 154 kts | 321° |
| 2026-04-22 02:58 | 9.00105 | -59.51101 | 9996 ft | 154 kts | 321° |
| 2026-04-22 02:59 | 9.00955 | -59.51765 | 9998 ft | 154 kts | 321° |
| 2026-04-22 02:59 | 9.01804 | -59.52428 | 9994 ft | 154 kts | 321° |
| 2026-04-22 02:59 | 9.02655 | -59.53092 | 9998 ft | 154 kts | 321° |
| 2026-04-22 02:59 | 9.03506 | -59.53757 | 9997 ft | 154 kts | 321° |
| 2026-04-22 03:00 | 9.04356 | -59.54421 | 9994 ft | 154 kts | 321° |
| 2026-04-22 03:00 | 9.05204 | -59.55085 | 9996 ft | 154 kts | 321° |
| 2026-04-22 03:00 | 9.06053 | -59.55748 | 9995 ft | 154 kts | 321° |
| 2026-04-22 03:00 | 9.06902 | -59.56411 | 9994 ft | 154 kts | 321° |
| 2026-04-22 03:01 | 9.07751 | -59.57074 | 9994 ft | 154 kts | 321° |
| 2026-04-22 03:01 | 9.08587 | -59.57728 | 9995 ft | 154 kts | 321° |
| 2026-04-22 03:01 | 9.09434 | -59.58390 | 9996 ft | 154 kts | 321° |
| 2026-04-22 03:01 | 9.10281 | -59.59052 | 9997 ft | 154 kts | 321° |
| 2026-04-22 03:02 | 9.11130 | -59.59716 | 9993 ft | 154 kts | 321° |
| 2026-04-22 03:02 | 9.11977 | -59.60378 | 9992 ft | 154 kts | 321° |
| 2026-04-22 03:02 | 9.12824 | -59.61041 | 9991 ft | 154 kts | 321° |
| 2026-04-22 03:02 | 9.13671 | -59.61703 | 9997 ft | 154 kts | 321° |
| 2026-04-22 03:03 | 9.14520 | -59.62367 | 9990 ft | 154 kts | 321° |
| 2026-04-22 03:03 | 9.15370 | -59.63031 | 9999 ft | 154 kts | 321° |
| 2026-04-22 03:03 | 9.16219 | -59.63695 | 9997 ft | 154 kts | 321° |
| 2026-04-22 03:03 | 9.17066 | -59.64357 | 10002 ft | 154 kts | 321° |
| 2026-04-22 03:04 | 9.17914 | -59.65020 | 10005 ft | 154 kts | 321° |
| 2026-04-22 03:04 | 9.18761 | -59.65683 | 10001 ft | 154 kts | 321° |
| 2026-04-22 03:04 | 9.19608 | -59.66346 | 9991 ft | 154 kts | 321° |
| 2026-04-22 03:04 | 9.20447 | -59.67002 | 9997 ft | 154 kts | 321° |
| 2026-04-22 03:05 | 9.21297 | -59.67667 | 9999 ft | 154 kts | 321° |
| 2026-04-22 03:05 | 9.22144 | -59.68329 | 10001 ft | 154 kts | 321° |
| 2026-04-22 03:05 | 9.22992 | -59.68993 | 10002 ft | 154 kts | 321° |
| 2026-04-22 03:05 | 9.23842 | -59.69658 | 10000 ft | 154 kts | 321° |
| 2026-04-22 03:06 | 9.24691 | -59.70322 | 9997 ft | 154 kts | 321° |
| 2026-04-22 03:06 | 9.25539 | -59.70986 | 9991 ft | 154 kts | 321° |
| 2026-04-22 03:06 | 9.26387 | -59.71650 | 9999 ft | 154 kts | 321° |
| 2026-04-22 03:06 | 9.27226 | -59.72307 | 10000 ft | 154 kts | 321° |
| 2026-04-22 03:07 | 9.28075 | -59.72970 | 9998 ft | 154 kts | 321° |
| 2026-04-22 03:07 | 9.28922 | -59.73634 | 9991 ft | 154 kts | 321° |
| 2026-04-22 03:07 | 9.29771 | -59.74298 | 9995 ft | 154 kts | 321° |
| 2026-04-22 03:07 | 9.30621 | -59.74964 | 9998 ft | 154 kts | 321° |
| 2026-04-22 03:08 | 9.31470 | -59.75628 | 9996 ft | 154 kts | 321° |
| 2026-04-22 03:08 | 9.32319 | -59.76293 | 9993 ft | 154 kts | 321° |
| 2026-04-22 03:08 | 9.33167 | -59.76957 | 9997 ft | 154 kts | 321° |
| 2026-04-22 03:08 | 9.34017 | -59.77622 | 9997 ft | 154 kts | 321° |
| 2026-04-22 03:09 | 9.34864 | -59.78286 | 10001 ft | 154 kts | 321° |
| 2026-04-22 03:09 | 9.35711 | -59.78949 | 9993 ft | 154 kts | 321° |
| 2026-04-22 03:09 | 9.36548 | -59.79605 | 9998 ft | 154 kts | 321° |
| 2026-04-22 03:09 | 9.37395 | -59.80268 | 10001 ft | 154 kts | 321° |
| 2026-04-22 03:10 | 9.38244 | -59.80933 | 10001 ft | 154 kts | 321° |
| 2026-04-22 03:10 | 9.39094 | -59.81599 | 10002 ft | 154 kts | 321° |
| 2026-04-22 03:10 | 9.39941 | -59.82262 | 10002 ft | 154 kts | 321° |
| 2026-04-22 03:10 | 9.40788 | -59.82926 | 9996 ft | 154 kts | 321° |
| 2026-04-22 03:11 | 9.41636 | -59.83591 | 10003 ft | 154 kts | 321° |
| 2026-04-22 03:11 | 9.42485 | -59.84255 | 9999 ft | 154 kts | 321° |
| 2026-04-22 03:11 | 9.43331 | -59.84918 | 10000 ft | 154 kts | 321° |
| 2026-04-22 03:11 | 9.44168 | -59.85574 | 9998 ft | 154 kts | 321° |
| 2026-04-22 03:12 | 9.45014 | -59.86238 | 10001 ft | 154 kts | 321° |
| 2026-04-22 03:12 | 9.46704 | -59.87562 | 9999 ft | 154 kts | 321° |
| 2026-04-22 03:12 | 9.47552 | -59.88226 | 10002 ft | 154 kts | 321° |
| 2026-04-22 03:13 | 9.48397 | -59.88889 | 10003 ft | 154 kts | 321° |
| 2026-04-22 03:13 | 9.49232 | -59.89543 | 10003 ft | 153 kts | 321° |
| 2026-04-22 03:13 | 9.50075 | -59.90205 | 10001 ft | 154 kts | 321° |
| 2026-04-22 03:13 | 9.50922 | -59.90869 | 9999 ft | 154 kts | 321° |
| 2026-04-22 03:14 | 9.51768 | -59.91532 | 10003 ft | 154 kts | 321° |
| 2026-04-22 03:14 | 9.52615 | -59.92196 | 10002 ft | 154 kts | 321° |
| 2026-04-22 03:14 | 9.53460 | -59.92858 | 10001 ft | 154 kts | 321° |
| 2026-04-22 03:14 | 9.54307 | -59.93523 | 10003 ft | 154 kts | 321° |
| 2026-04-22 03:15 | 9.55151 | -59.94185 | 9997 ft | 154 kts | 321° |
| 2026-04-22 03:15 | 9.55998 | -59.94849 | 10003 ft | 154 kts | 321° |
| 2026-04-22 03:15 | 9.56846 | -59.95514 | 10001 ft | 154 kts | 321° |
| 2026-04-22 03:15 | 9.57690 | -59.96177 | 10003 ft | 154 kts | 321° |
| 2026-04-22 03:16 | 9.58525 | -59.96832 | 10001 ft | 154 kts | 321° |
| 2026-04-22 03:16 | 9.59370 | -59.97494 | 9995 ft | 154 kts | 321° |
| 2026-04-22 03:16 | 9.60213 | -59.98156 | 10000 ft | 154 kts | 321° |
| 2026-04-22 03:16 | 9.61060 | -59.98820 | 9999 ft | 154 kts | 321° |
| 2026-04-22 03:17 | 9.61905 | -59.99484 | 10003 ft | 154 kts | 321° |
| 2026-04-22 03:17 | 9.62750 | -60.00147 | 10002 ft | 154 kts | 321° |
| 2026-04-22 03:17 | 9.63596 | -60.00810 | 10001 ft | 154 kts | 321° |
| 2026-04-22 03:17 | 9.64442 | -60.01474 | 9997 ft | 154 kts | 321° |
| 2026-04-22 03:18 | 9.65287 | -60.02137 | 9998 ft | 154 kts | 321° |
| 2026-04-22 03:18 | 9.66122 | -60.02793 | 9997 ft | 154 kts | 321° |
| 2026-04-22 03:18 | 9.66977 | -60.03464 | 10001 ft | 154 kts | 321° |
| 2026-04-22 03:18 | 9.67822 | -60.04127 | 10002 ft | 154 kts | 321° |
| 2026-04-22 03:19 | 9.68666 | -60.04790 | 10001 ft | 154 kts | 321° |
| 2026-04-22 03:19 | 9.69512 | -60.05454 | 10002 ft | 154 kts | 321° |
| 2026-04-22 03:19 | 9.70357 | -60.06118 | 10000 ft | 154 kts | 321° |
| 2026-04-22 03:19 | 9.71191 | -60.06772 | 10002 ft | 154 kts | 321° |
| 2026-04-22 03:20 | 9.72036 | -60.07437 | 10001 ft | 154 kts | 321° |
| 2026-04-22 03:20 | 9.72883 | -60.08101 | 10002 ft | 154 kts | 321° |
| 2026-04-22 03:20 | 9.73729 | -60.08766 | 9999 ft | 154 kts | 321° |
| 2026-04-22 03:20 | 9.74574 | -60.09430 | 9999 ft | 154 kts | 321° |
| 2026-04-22 03:21 | 9.75419 | -60.10093 | 10001 ft | 154 kts | 321° |
| 2026-04-22 03:21 | 9.76265 | -60.10758 | 10002 ft | 154 kts | 321° |
| 2026-04-22 03:21 | 9.77111 | -60.11423 | 10002 ft | 154 kts | 321° |
| 2026-04-22 03:21 | 9.77955 | -60.12086 | 10003 ft | 154 kts | 321° |
| 2026-04-22 03:22 | 9.78799 | -60.12749 | 10001 ft | 154 kts | 321° |
| 2026-04-22 03:22 | 9.79646 | -60.13414 | 10002 ft | 154 kts | 321° |
| 2026-04-22 03:22 | 9.80489 | -60.14077 | 9997 ft | 154 kts | 321° |
| 2026-04-22 03:22 | 9.81333 | -60.14740 | 10003 ft | 153 kts | 321° |
| 2026-04-22 03:23 | 9.82177 | -60.15403 | 10002 ft | 153 kts | 321° |
| 2026-04-22 03:23 | 9.83022 | -60.16067 | 10001 ft | 153 kts | 321° |
| 2026-04-22 03:23 | 9.83865 | -60.16730 | 9999 ft | 153 kts | 321° |
| 2026-04-22 03:23 | 9.84707 | -60.17392 | 9999 ft | 153 kts | 321° |
| 2026-04-22 03:24 | 9.85550 | -60.18055 | 9993 ft | 153 kts | 321° |
| 2026-04-22 03:24 | 9.86380 | -60.18708 | 10001 ft | 153 kts | 321° |
| 2026-04-22 03:24 | 9.87222 | -60.19369 | 10001 ft | 153 kts | 321° |
| 2026-04-22 03:24 | 9.88063 | -60.20030 | 10004 ft | 153 kts | 321° |
| 2026-04-22 03:25 | 9.88904 | -60.20692 | 10002 ft | 153 kts | 321° |
| 2026-04-22 03:25 | 9.89746 | -60.21354 | 10004 ft | 153 kts | 321° |
| 2026-04-22 03:25 | 9.90586 | -60.22015 | 9999 ft | 153 kts | 321° |
| 2026-04-22 03:25 | 9.91429 | -60.22678 | 10001 ft | 153 kts | 321° |
| 2026-04-22 03:26 | 9.92272 | -60.23341 | 9995 ft | 153 kts | 321° |
| 2026-04-22 03:26 | 9.93115 | -60.24003 | 10002 ft | 153 kts | 321° |
| 2026-04-22 03:26 | 9.93956 | -60.24665 | 10002 ft | 153 kts | 321° |
| 2026-04-22 03:26 | 9.94797 | -60.25327 | 10000 ft | 153 kts | 321° |
| 2026-04-22 03:27 | 9.95638 | -60.25989 | 9998 ft | 153 kts | 321° |
| 2026-04-22 03:27 | 9.96471 | -60.26644 | 10002 ft | 153 kts | 321° |
| 2026-04-22 03:27 | 9.97312 | -60.27306 | 9998 ft | 153 kts | 321° |
| 2026-04-22 03:27 | 9.98154 | -60.27968 | 9996 ft | 153 kts | 321° |
| 2026-04-22 03:28 | 9.98993 | -60.28629 | 10001 ft | 153 kts | 321° |
| 2026-04-22 03:28 | 9.99833 | -60.29290 | 10000 ft | 153 kts | 321° |
| 2026-04-22 03:28 | 10.00673 | -60.29951 | 9996 ft | 153 kts | 321° |
| 2026-04-22 03:28 | 10.01514 | -60.30612 | 9996 ft | 153 kts | 321° |
| 2026-04-22 03:29 | 10.02353 | -60.31273 | 10000 ft | 153 kts | 321° |
| 2026-04-22 03:29 | 10.03192 | -60.31934 | 10003 ft | 153 kts | 321° |
| 2026-04-22 03:29 | 10.04035 | -60.32597 | 9999 ft | 153 kts | 321° |
| 2026-04-22 03:29 | 10.04876 | -60.33259 | 10004 ft | 153 kts | 321° |
| 2026-04-22 03:30 | 10.05718 | -60.33923 | 10004 ft | 153 kts | 321° |
| 2026-04-22 03:30 | 10.06559 | -60.34585 | 10005 ft | 153 kts | 321° |
| 2026-04-22 03:30 | 10.07402 | -60.35248 | 10005 ft | 153 kts | 321° |
| 2026-04-22 03:30 | 10.08243 | -60.35911 | 10002 ft | 153 kts | 321° |
| 2026-04-22 03:31 | 10.09086 | -60.36575 | 10001 ft | 153 kts | 321° |
| 2026-04-22 03:31 | 10.09929 | -60.37239 | 10004 ft | 153 kts | 321° |
| 2026-04-22 03:31 | 10.10772 | -60.37903 | 10003 ft | 153 kts | 321° |
| 2026-04-22 03:31 | 10.11613 | -60.38565 | 9999 ft | 153 kts | 321° |
| 2026-04-22 03:32 | 10.12455 | -60.39229 | 10003 ft | 153 kts | 321° |
| 2026-04-22 03:32 | 10.13298 | -60.39893 | 10001 ft | 153 kts | 321° |
| 2026-04-22 03:32 | 10.14140 | -60.40557 | 10004 ft | 153 kts | 321° |
| 2026-04-22 03:32 | 10.14970 | -60.41211 | 10003 ft | 153 kts | 321° |
| 2026-04-22 03:33 | 10.15811 | -60.41873 | 9997 ft | 153 kts | 321° |
| 2026-04-22 03:33 | 10.16652 | -60.42536 | 9998 ft | 153 kts | 321° |
| 2026-04-22 03:33 | 10.17492 | -60.43198 | 9999 ft | 153 kts | 321° |
| 2026-04-22 03:33 | 10.18336 | -60.43863 | 10000 ft | 153 kts | 321° |
| 2026-04-22 03:34 | 10.19176 | -60.44526 | 9994 ft | 153 kts | 321° |
| 2026-04-22 03:34 | 10.20017 | -60.45189 | 10000 ft | 153 kts | 321° |
| 2026-04-22 03:34 | 10.20857 | -60.45850 | 10002 ft | 153 kts | 321° |
| 2026-04-22 03:34 | 10.21695 | -60.46512 | 10000 ft | 153 kts | 321° |
| 2026-04-22 03:35 | 10.22536 | -60.47174 | 10003 ft | 153 kts | 320° |
| 2026-04-22 03:35 | 10.23376 | -60.47837 | 10001 ft | 153 kts | 320° |
| 2026-04-22 03:35 | 10.24215 | -60.48498 | 10000 ft | 153 kts | 321° |
| 2026-04-22 03:35 | 10.25044 | -60.49153 | 10000 ft | 153 kts | 321° |
| 2026-04-22 03:36 | 10.25882 | -60.49813 | 10001 ft | 153 kts | 321° |
| 2026-04-22 03:36 | 10.26731 | -60.50483 | 10002 ft | 153 kts | 321° |
| 2026-04-22 03:36 | 10.27559 | -60.51136 | 9993 ft | 153 kts | 321° |
| 2026-04-22 03:36 | 10.28397 | -60.51797 | 10003 ft | 153 kts | 321° |
| 2026-04-22 03:37 | 10.29237 | -60.52460 | 10002 ft | 153 kts | 321° |
| 2026-04-22 03:37 | 10.30076 | -60.53121 | 9997 ft | 153 kts | 321° |
| 2026-04-22 03:37 | 10.30915 | -60.53783 | 10005 ft | 153 kts | 321° |
| 2026-04-22 03:37 | 10.31756 | -60.54447 | 10000 ft | 153 kts | 321° |
| 2026-04-22 03:38 | 10.32596 | -60.55110 | 9997 ft | 153 kts | 321° |
| 2026-04-22 03:38 | 10.33439 | -60.55775 | 9996 ft | 153 kts | 321° |
| 2026-04-22 03:38 | 10.34279 | -60.56438 | 9999 ft | 153 kts | 321° |
| 2026-04-22 03:38 | 10.35119 | -60.57101 | 9997 ft | 153 kts | 321° |
| 2026-04-22 03:39 | 10.35957 | -60.57763 | 9996 ft | 153 kts | 321° |
| 2026-04-22 03:39 | 10.36797 | -60.58425 | 10002 ft | 153 kts | 320° |
| 2026-04-22 03:39 | 10.37637 | -60.59089 | 10004 ft | 153 kts | 321° |
| 2026-04-22 03:39 | 10.38467 | -60.59744 | 10000 ft | 153 kts | 320° |
| 2026-04-22 03:40 | 10.39306 | -60.60406 | 9996 ft | 153 kts | 320° |
| 2026-04-22 03:40 | 10.40144 | -60.61068 | 9996 ft | 153 kts | 320° |
| 2026-04-22 03:40 | 10.40983 | -60.61731 | 9999 ft | 153 kts | 320° |
| 2026-04-22 03:40 | 10.41821 | -60.62392 | 10004 ft | 152 kts | 320° |
| 2026-04-22 03:41 | 10.42603 | -60.63010 | 10000 ft | 152 kts | 320° |
| 2026-04-22 03:41 | 10.43442 | -60.63673 | 9999 ft | 152 kts | 320° |
| 2026-04-22 03:41 | 10.44279 | -60.64334 | 10000 ft | 152 kts | 320° |
| 2026-04-22 03:41 | 10.45115 | -60.64994 | 9998 ft | 152 kts | 321° |
| 2026-04-22 03:42 | 10.45954 | -60.65657 | 10002 ft | 152 kts | 320° |
| 2026-04-22 03:42 | 10.46790 | -60.66317 | 10001 ft | 152 kts | 320° |
| 2026-04-22 03:42 | 10.47628 | -60.66980 | 10002 ft | 152 kts | 321° |
| 2026-04-22 03:42 | 10.48464 | -60.67640 | 10002 ft | 152 kts | 321° |
| 2026-04-22 03:43 | 10.49301 | -60.68302 | 10000 ft | 152 kts | 320° |
| 2026-04-22 03:43 | 10.50139 | -60.68964 | 10001 ft | 152 kts | 321° |
| 2026-04-22 03:43 | 10.50964 | -60.69616 | 10002 ft | 152 kts | 320° |
| 2026-04-22 03:43 | 10.51801 | -60.70277 | 10000 ft | 152 kts | 321° |
| 2026-04-22 03:44 | 10.52638 | -60.70939 | 9998 ft | 153 kts | 320° |
| 2026-04-22 03:44 | 10.53195 | -60.71380 | 10001 ft | 153 kts | 320° |
| 2026-04-22 03:44 | 10.54044 | -60.72050 | 10000 ft | 152 kts | 320° |
| 2026-04-22 03:44 | 10.54881 | -60.72712 | 10001 ft | 152 kts | 320° |
| 2026-04-22 03:45 | 10.55707 | -60.73365 | 10003 ft | 152 kts | 320° |
| 2026-04-22 03:45 | 10.56543 | -60.74026 | 10000 ft | 152 kts | 320° |
| 2026-04-22 03:45 | 10.57380 | -60.74688 | 10001 ft | 152 kts | 320° |
| 2026-04-22 03:45 | 10.58218 | -60.75351 | 10004 ft | 152 kts | 320° |
| 2026-04-22 03:46 | 10.59055 | -60.76013 | 10001 ft | 152 kts | 320° |
| 2026-04-22 03:46 | 10.59891 | -60.76674 | 10003 ft | 152 kts | 320° |
| 2026-04-22 03:46 | 10.60726 | -60.77334 | 10004 ft | 152 kts | 320° |
| 2026-04-22 03:46 | 10.61561 | -60.77995 | 9999 ft | 152 kts | 320° |
| 2026-04-22 03:47 | 10.62398 | -60.78657 | 9995 ft | 152 kts | 320° |
| 2026-04-22 03:47 | 10.63236 | -60.79320 | 10002 ft | 152 kts | 320° |
| 2026-04-22 03:47 | 10.64072 | -60.79981 | 10003 ft | 152 kts | 320° |
| 2026-04-22 03:47 | 10.64907 | -60.80642 | 10001 ft | 152 kts | 320° |
| 2026-04-22 03:48 | 10.65742 | -60.81303 | 9996 ft | 152 kts | 320° |
| 2026-04-22 03:48 | 10.66576 | -60.81963 | 10001 ft | 152 kts | 320° |
| 2026-04-22 03:48 | 10.67411 | -60.82624 | 10005 ft | 152 kts | 320° |
| 2026-04-22 03:48 | 10.68235 | -60.83275 | 10000 ft | 151 kts | 320° |
| 2026-04-22 03:49 | 10.69065 | -60.83933 | 10004 ft | 151 kts | 320° |
| 2026-04-22 03:49 | 10.69897 | -60.84591 | 10004 ft | 151 kts | 320° |
| 2026-04-22 03:49 | 10.70728 | -60.85249 | 10005 ft | 151 kts | 320° |
| 2026-04-22 03:49 | 10.71558 | -60.85906 | 10000 ft | 151 kts | 320° |
| 2026-04-22 03:50 | 10.72387 | -60.86562 | 9997 ft | 151 kts | 320° |
| 2026-04-22 03:50 | 10.73216 | -60.87218 | 9999 ft | 151 kts | 320° |
| 2026-04-22 03:50 | 10.74046 | -60.87875 | 10003 ft | 151 kts | 320° |
| 2026-04-22 03:50 | 10.74875 | -60.88532 | 10001 ft | 151 kts | 320° |
| 2026-04-22 03:51 | 10.75703 | -60.89188 | 10002 ft | 151 kts | 320° |
| 2026-04-22 03:51 | 10.76532 | -60.89845 | 10003 ft | 151 kts | 320° |
| 2026-04-22 03:51 | 10.77362 | -60.90502 | 9999 ft | 151 kts | 320° |
| 2026-04-22 03:51 | 10.78194 | -60.91161 | 9998 ft | 151 kts | 320° |
| 2026-04-22 03:52 | 10.79024 | -60.91819 | 10003 ft | 151 kts | 320° |
| 2026-04-22 03:52 | 10.79854 | -60.92477 | 10005 ft | 152 kts | 320° |
| 2026-04-22 03:52 | 10.80678 | -60.93129 | 10018 ft | 152 kts | 320° |
| 2026-04-22 03:52 | 10.81516 | -60.93793 | 10000 ft | 152 kts | 320° |
| 2026-04-22 03:53 | 10.82356 | -60.94459 | 10008 ft | 153 kts | 319° |
| 2026-04-22 03:53 | 10.83198 | -60.95127 | 10009 ft | 153 kts | 319° |
| 2026-04-22 03:53 | 10.84046 | -60.95798 | 10005 ft | 154 kts | 320° |
| 2026-04-22 03:53 | 10.84888 | -60.96465 | 9999 ft | 153 kts | 319° |
| 2026-04-22 03:54 | 10.85725 | -60.97129 | 9998 ft | 152 kts | 320° |
| 2026-04-22 03:54 | 10.86560 | -60.97791 | 9997 ft | 152 kts | 320° |
| 2026-04-22 03:54 | 10.87392 | -60.98451 | 9997 ft | 152 kts | 319° |
| 2026-04-22 03:54 | 10.88225 | -60.99111 | 9996 ft | 151 kts | 319° |
| 2026-04-22 03:55 | 10.89055 | -60.99769 | 9994 ft | 151 kts | 320° |
| 2026-04-22 03:55 | 10.89883 | -61.00426 | 9995 ft | 151 kts | 319° |
| 2026-04-22 03:55 | 10.90702 | -61.01075 | 9997 ft | 151 kts | 320° |
| 2026-04-22 03:55 | 10.91529 | -61.01731 | 9992 ft | 150 kts | 319° |
| 2026-04-22 03:56 | 10.92353 | -61.02385 | 9998 ft | 150 kts | 319° |
| 2026-04-22 03:56 | 10.93174 | -61.03036 | 9991 ft | 150 kts | 319° |
| 2026-04-22 03:56 | 10.93998 | -61.03690 | 9992 ft | 150 kts | 319° |
| 2026-04-22 03:56 | 10.94823 | -61.04344 | 9994 ft | 149 kts | 319° |
| 2026-04-22 03:57 | 10.95640 | -61.04992 | 9993 ft | 149 kts | 319° |
| 2026-04-22 03:57 | 10.96456 | -61.05640 | 9991 ft | 149 kts | 319° |
| 2026-04-22 03:57 | 10.97274 | -61.06289 | 9991 ft | 149 kts | 319° |
| 2026-04-22 03:57 | 10.98093 | -61.06939 | 9996 ft | 149 kts | 319° |
| 2026-04-22 03:58 | 10.98911 | -61.07588 | 9993 ft | 149 kts | 319° |
| 2026-04-22 03:58 | 10.99728 | -61.08236 | 9993 ft | 149 kts | 319° |
| 2026-04-22 03:58 | 11.00546 | -61.08885 | 9997 ft | 149 kts | 319° |
| 2026-04-22 03:58 | 11.01364 | -61.09535 | 9996 ft | 149 kts | 319° |
| 2026-04-22 03:59 | 11.02183 | -61.10185 | 9994 ft | 149 kts | 319° |
| 2026-04-22 03:59 | 11.02991 | -61.10826 | 9993 ft | 149 kts | 319° |
| 2026-04-22 03:59 | 11.03810 | -61.11477 | 9995 ft | 149 kts | 320° |
| 2026-04-22 03:59 | 11.04627 | -61.12126 | 9997 ft | 149 kts | 319° |
| 2026-04-22 04:00 | 11.05445 | -61.12775 | 9995 ft | 149 kts | 319° |
| 2026-04-22 04:00 | 11.06264 | -61.13425 | 9994 ft | 149 kts | 319° |
| 2026-04-22 04:00 | 11.07084 | -61.14076 | 9991 ft | 149 kts | 319° |
| 2026-04-22 04:00 | 11.07903 | -61.14727 | 9993 ft | 149 kts | 319° |
| 2026-04-22 04:01 | 11.08724 | -61.15379 | 9990 ft | 149 kts | 319° |
| 2026-04-22 04:01 | 11.09543 | -61.16030 | 9993 ft | 149 kts | 319° |
| 2026-04-22 04:01 | 11.10361 | -61.16679 | 9992 ft | 149 kts | 319° |
| 2026-04-22 04:01 | 11.11182 | -61.17332 | 9990 ft | 150 kts | 319° |
| 2026-04-22 04:02 | 11.12002 | -61.17984 | 9991 ft | 149 kts | 319° |
| 2026-04-22 04:02 | 11.12822 | -61.18636 | 9991 ft | 150 kts | 319° |
| 2026-04-22 04:02 | 11.13642 | -61.19286 | 9989 ft | 149 kts | 319° |
| 2026-04-22 04:02 | 11.14461 | -61.19938 | 9985 ft | 149 kts | 319° |
| 2026-04-22 04:03 | 11.15276 | -61.20585 | 9992 ft | 149 kts | 319° |
| 2026-04-22 04:03 | 11.16090 | -61.21233 | 9989 ft | 148 kts | 319° |
| 2026-04-22 04:03 | 11.16902 | -61.21877 | 9994 ft | 148 kts | 319° |
| 2026-04-22 04:03 | 11.17714 | -61.22523 | 9985 ft | 149 kts | 319° |
| 2026-04-22 04:04 | 11.18530 | -61.23172 | 9995 ft | 149 kts | 319° |
| 2026-04-22 04:04 | 11.19346 | -61.23821 | 9996 ft | 149 kts | 319° |
| 2026-04-22 04:04 | 11.20161 | -61.24469 | 9992 ft | 148 kts | 319° |
| 2026-04-22 04:04 | 11.20964 | -61.25107 | 9996 ft | 149 kts | 319° |
| 2026-04-22 04:05 | 11.21779 | -61.25755 | 9994 ft | 149 kts | 319° |
| 2026-04-22 04:05 | 11.22598 | -61.26406 | 9994 ft | 149 kts | 318° |
| 2026-04-22 04:05 | 11.23414 | -61.27055 | 9985 ft | 149 kts | 319° |
| 2026-04-22 04:05 | 11.24229 | -61.27704 | 9993 ft | 148 kts | 319° |
| 2026-04-22 04:06 | 11.25041 | -61.28350 | 9991 ft | 148 kts | 319° |
| 2026-04-22 04:06 | 11.25857 | -61.28998 | 9993 ft | 148 kts | 318° |
| 2026-04-22 04:06 | 11.26670 | -61.29646 | 9990 ft | 148 kts | 318° |
| 2026-04-22 04:06 | 11.27485 | -61.30294 | 9994 ft | 149 kts | 319° |
| 2026-04-22 04:07 | 11.28300 | -61.30942 | 9986 ft | 148 kts | 318° |
| 2026-04-22 04:07 | 11.29101 | -61.31580 | 9989 ft | 148 kts | 319° |
| 2026-04-22 04:07 | 11.29923 | -61.32234 | 9990 ft | 148 kts | 319° |
| 2026-04-22 04:07 | 11.30725 | -61.32873 | 9989 ft | 148 kts | 319° |
| 2026-04-22 04:08 | 11.31537 | -61.33519 | 9991 ft | 148 kts | 319° |
| 2026-04-22 04:08 | 11.32347 | -61.34163 | 9991 ft | 148 kts | 318° |
| 2026-04-22 04:08 | 11.33156 | -61.34807 | 9992 ft | 147 kts | 319° |
| 2026-04-22 04:08 | 11.33964 | -61.35451 | 9991 ft | 147 kts | 319° |
| 2026-04-22 04:09 | 11.34772 | -61.36095 | 9988 ft | 148 kts | 319° |
| 2026-04-22 04:09 | 11.35583 | -61.36740 | 9985 ft | 147 kts | 318° |
| 2026-04-22 04:09 | 11.36390 | -61.37382 | 9987 ft | 147 kts | 319° |
| 2026-04-22 04:09 | 11.37196 | -61.38024 | 9986 ft | 147 kts | 319° |
| 2026-04-22 04:10 | 11.38002 | -61.38667 | 9986 ft | 147 kts | 319° |
| 2026-04-22 04:10 | 11.38812 | -61.39311 | 9984 ft | 147 kts | 319° |
| 2026-04-22 04:10 | 11.39618 | -61.39954 | 9987 ft | 147 kts | 319° |
| 2026-04-22 04:10 | 11.40423 | -61.40595 | 9987 ft | 147 kts | 319° |
| 2026-04-22 04:11 | 11.41227 | -61.41235 | 9987 ft | 147 kts | 318° |
| 2026-04-22 04:11 | 11.42032 | -61.41877 | 9988 ft | 147 kts | 318° |
| 2026-04-22 04:11 | 11.42839 | -61.42520 | 9987 ft | 147 kts | 319° |
| 2026-04-22 04:11 | 11.43649 | -61.43165 | 9988 ft | 148 kts | 319° |
| 2026-04-22 04:12 | 11.44461 | -61.43812 | 9989 ft | 148 kts | 319° |
| 2026-04-22 04:12 | 11.45269 | -61.44456 | 9988 ft | 147 kts | 319° |
| 2026-04-22 04:12 | 11.46075 | -61.45099 | 9987 ft | 147 kts | 319° |
| 2026-04-22 04:12 | 11.46878 | -61.45738 | 9988 ft | 146 kts | 318° |
| 2026-04-22 04:13 | 11.47693 | -61.46389 | 9902 ft | 152 kts | 319° |
| 2026-04-22 04:13 | 11.48539 | -61.47064 | 9792 ft | 157 kts | 318° |
| 2026-04-22 04:13 | 11.49397 | -61.47747 | 9663 ft | 160 kts | 319° |
| 2026-04-22 04:13 | 11.50292 | -61.48460 | 9537 ft | 162 kts | 319° |
| 2026-04-22 04:14 | 11.51168 | -61.49158 | 9414 ft | 162 kts | 319° |
| 2026-04-22 04:14 | 11.52061 | -61.49870 | 9288 ft | 163 kts | 319° |
| 2026-04-22 04:14 | 11.52952 | -61.50580 | 9166 ft | 163 kts | 320° |
| 2026-04-22 04:14 | 11.53845 | -61.51292 | 9039 ft | 163 kts | 320° |
| 2026-04-22 04:15 | 11.54730 | -61.51996 | 8912 ft | 159 kts | 320° |
| 2026-04-22 04:15 | 11.55585 | -61.52677 | 8787 ft | 154 kts | 320° |
| 2026-04-22 04:15 | 11.56428 | -61.53349 | 8659 ft | 153 kts | 320° |
| 2026-04-22 04:15 | 11.57260 | -61.54014 | 8534 ft | 151 kts | 320° |
| 2026-04-22 04:16 | 11.58087 | -61.54673 | 8412 ft | 150 kts | 321° |
| 2026-04-22 04:16 | 11.59725 | -61.55981 | 8164 ft | 149 kts | 321° |
| 2026-04-22 04:16 | 11.60538 | -61.56630 | 8043 ft | 148 kts | 321° |
| 2026-04-22 04:17 | 11.61347 | -61.57275 | 7920 ft | 148 kts | 321° |
| 2026-04-22 04:17 | 11.62154 | -61.57919 | 7799 ft | 147 kts | 321° |
| 2026-04-22 04:17 | 11.62958 | -61.58561 | 7680 ft | 147 kts | 321° |
| 2026-04-22 04:17 | 11.63765 | -61.59206 | 7562 ft | 148 kts | 322° |
| 2026-04-22 04:18 | 11.64575 | -61.59852 | 7442 ft | 148 kts | 322° |
| 2026-04-22 04:18 | 11.65383 | -61.60498 | 7323 ft | 147 kts | 322° |
| 2026-04-22 04:18 | 11.66191 | -61.61143 | 7203 ft | 147 kts | 322° |
| 2026-04-22 04:18 | 11.66999 | -61.61787 | 7086 ft | 147 kts | 322° |
| 2026-04-22 04:19 | 11.67803 | -61.62429 | 6970 ft | 147 kts | 322° |
| 2026-04-22 04:19 | 11.68594 | -61.63061 | 6857 ft | 146 kts | 323° |
| 2026-04-22 04:19 | 11.69325 | -61.63644 | 6749 ft | 146 kts | 323° |
| 2026-04-22 04:19 | 11.70113 | -61.64274 | 6633 ft | 146 kts | 323° |
| 2026-04-22 04:20 | 11.70910 | -61.64910 | 6516 ft | 145 kts | 323° |
| 2026-04-22 04:20 | 11.71702 | -61.65543 | 6402 ft | 144 kts | 323° |
| 2026-04-22 04:20 | 11.72494 | -61.66176 | 6279 ft | 144 kts | 323° |
| 2026-04-22 04:20 | 11.73281 | -61.66804 | 6157 ft | 143 kts | 324° |
| 2026-04-22 04:21 | 11.74066 | -61.67432 | 6033 ft | 143 kts | 324° |
| 2026-04-22 04:21 | 11.74849 | -61.68057 | 5912 ft | 143 kts | 324° |
| 2026-04-22 04:21 | 11.75632 | -61.68683 | 5785 ft | 143 kts | 324° |
| 2026-04-22 04:21 | 11.76410 | -61.69305 | 5662 ft | 142 kts | 325° |
| 2026-04-22 04:22 | 11.77187 | -61.69926 | 5542 ft | 142 kts | 324° |
| 2026-04-22 04:22 | 11.77765 | -61.70388 | 5453 ft | 142 kts | 325° |
| 2026-04-22 04:22 | 11.78539 | -61.71007 | 5331 ft | 141 kts | 326° |
| 2026-04-22 04:22 | 11.79307 | -61.71621 | 5209 ft | 139 kts | 325° |
| 2026-04-22 04:23 | 11.80067 | -61.72228 | 5088 ft | 138 kts | 325° |
| 2026-04-22 04:23 | 11.80822 | -61.72832 | 4967 ft | 137 kts | 325° |
| 2026-04-22 04:23 | 11.81569 | -61.73430 | 4849 ft | 136 kts | 326° |
| 2026-04-22 04:23 | 11.82315 | -61.74026 | 4727 ft | 136 kts | 326° |
| 2026-04-22 04:24 | 11.83058 | -61.74619 | 4600 ft | 135 kts | 325° |
| 2026-04-22 04:24 | 11.83796 | -61.75210 | 4474 ft | 134 kts | 325° |
| 2026-04-22 04:24 | 11.84530 | -61.75797 | 4351 ft | 134 kts | 326° |
| 2026-04-22 04:24 | 11.85260 | -61.76382 | 4225 ft | 132 kts | 326° |
| 2026-04-22 04:25 | 11.85977 | -61.76955 | 4102 ft | 130 kts | 327° |
| 2026-04-22 04:25 | 11.86685 | -61.77522 | 3980 ft | 130 kts | 326° |
| 2026-04-22 04:25 | 11.87438 | -61.78123 | 3866 ft | 146 kts | 326° |
| 2026-04-22 04:25 | 11.88255 | -61.78778 | 3755 ft | 151 kts | 325° |
| 2026-04-22 04:26 | 11.89081 | -61.79439 | 3645 ft | 154 kts | 326° |
| 2026-04-22 04:26 | 11.89944 | -61.80131 | 3523 ft | 157 kts | 326° |
| 2026-04-22 04:26 | 11.90790 | -61.80808 | 3402 ft | 156 kts | 326° |
| 2026-04-22 04:26 | 11.91645 | -61.81493 | 3286 ft | 156 kts | 326° |
| 2026-04-22 04:27 | 11.92505 | -61.82181 | 3122 ft | 158 kts | 325° |
| 2026-04-22 04:27 | 11.93374 | -61.82876 | 2957 ft | 160 kts | 326° |
| 2026-04-22 04:27 | 11.94253 | -61.83579 | 2787 ft | 161 kts | 326° |
| 2026-04-22 04:27 | 11.95133 | -61.84285 | 2617 ft | 161 kts | 326° |
| 2026-04-22 04:28 | 11.96015 | -61.84992 | 2474 ft | 160 kts | 326° |
| 2026-04-22 04:28 | 11.96940 | -61.85579 | 2350 ft | 154 kts | 343° |
| 2026-04-22 04:28 | 11.97973 | -61.85743 | 2224 ft | 149 kts | 7° |
| 2026-04-22 04:28 | 11.98971 | -61.85487 | 2048 ft | 148 kts | 28° |
| 2026-04-22 04:29 | 11.99536 | -61.85110 | 1934 ft | 147 kts | 42° |
| 2026-04-22 04:29 | 12.00163 | -61.84298 | 1758 ft | 146 kts | 63° |
| 2026-04-22 04:29 | 12.00432 | -61.83329 | 1701 ft | 135 kts | 83° |
| 2026-04-22 04:29 | 12.00428 | -61.82415 | 1272 ft | 127 kts | 91° |
| 2026-04-22 04:30 | 12.00410 | -61.81495 | 654 ft | 130 kts | 89° |
| 2026-04-22 04:30 | 12.00425 | -61.80584 | 235 ft | 124 kts | 91° |
| 2026-04-22 04:30 | 12.00416 | -61.79810 | 73 ft | 88 kts | 90° |
| 2026-04-22 04:30 | 12.00413 | -61.79330 | 33 ft | 48 kts | 90° |
| 2026-04-22 04:31 | 12.00410 | -61.79055 | 35 ft | 31 kts | 91° |
| 2026-04-22 04:31 | 12.00409 | -61.78854 | 36 ft | 26 kts | 90° |
| 2026-04-22 04:31 | 12.00408 | -61.78689 | 37 ft | 19 kts | 91° |
| 2026-04-22 04:31 | 12.00416 | -61.78603 | 37 ft | 11 kts | 46° |
| 2026-04-22 04:32 | 12.00489 | -61.78597 | 37 ft | 10 kts | 359° |
| 2026-04-22 04:32 | 12.00548 | -61.78597 | 39 ft | 8 kts | 359° |
| 2026-04-22 04:32 | 12.00584 | -61.78578 | 40 ft | 7 kts | 75° |
| 2026-04-22 04:32 | 12.00592 | -61.78536 | 40 ft | 5 kts | 78° |
| 2026-04-22 04:33 | 12.00591 | -61.78490 | 40 ft | 6 kts | 90° |
| 2026-04-22 04:33 | 12.00598 | -61.78468 | 40 ft | 1 kts | 302° |
| 2026-04-22 04:33 | 12.00590 | -61.78531 | 40 ft | 11 kts | 269° |
| 2026-04-22 04:33 | 12.00589 | -61.78597 | 40 ft | 7 kts | 272° |
| 2026-04-22 04:34 | 12.00604 | -61.78611 | 40 ft | 6 kts | 268° |
| 2026-04-22 04:34 | 12.00617 | -61.78642 | 41 ft | 0 kts | 16° |
| 2026-04-22 04:34 | 12.00621 | -61.78641 | 41 ft | 4 kts | 21° |
| 2026-04-22 04:34 | 12.00655 | -61.78636 | 42 ft | 1 kts | 360° |
| 2026-04-22 04:35 | 12.00663 | -61.78636 | 42 ft | 4 kts | 359° |
| 2026-04-22 04:35 | 12.00670 | -61.78636 | 43 ft | 0 kts | 359° |